Observation data for Lesley on 07/11/2018      Previous  Date       Current Mesonet Observations  Soil Data  Daily Summary Page  Observations in Plain Language
KLE1 110500Z 09006KT 24/18 A3009 RMK A01 T02430183  RH  069%=      5-min Rain = 0
KLE1 110501Z 10006KT 24/18 A3009 RMK A01 T02430183  RH  069%=      5-min Rain = 0
KLE1 110502Z 10007KT 24/18 A3009 RMK A01 T02430183  RH  069%=      5-min Rain = 0
KLE1 110503Z 10007KT 24/18 A3009 RMK A01 T02420183  RH  069%=      5-min Rain = 0
KLE1 110504Z 10007KT 24/18 A3009 RMK A01 T02430184  RH  069%=      5-min Rain = 0
KLE1 110505Z 10007KT 24/18 A3009 RMK A01 T02440184  RH  069%=      5-min Rain = 0
KLE1 110506Z 10007KT 25/18 A3009 RMK A01 T02450184  RH  069%=      5-min Rain = 0
KLE1 110507Z 10007KT 25/18 A3009 RMK A01 T02450184  RH  069%=      5-min Rain = 0
KLE1 110508Z 11007KT 25/18 A3009 RMK A01 T02460184  RH  068%=      5-min Rain = 0
KLE1 110509Z 10007KT 25/19 A3009 RMK A01 T02470185  RH  068%=      5-min Rain = 0
KLE1 110510Z 10007KT 25/19 A3009 RMK A01 T02470185  RH  068%=      5-min Rain = 0
KLE1 110511Z 10006KT 25/19 A3009 RMK A01 T02470185  RH  068%=      5-min Rain = 0
KLE1 110512Z 10007KT 25/19 A3009 RMK A01 T02470185  RH  068%=      5-min Rain = 0
KLE1 110513Z 10006KT 25/19 A3009 RMK A01 T02470185  RH  068%=      5-min Rain = 0
KLE1 110514Z 10006KT 25/19 A3009 RMK A01 T02470185  RH  068%=      5-min Rain = 0
KLE1 110515Z 10006KT 25/19 A3009 RMK A01 T02470185  RH  068%=      5-min Rain = 0
KLE1 110516Z 10006KT 25/19 A3009 RMK A01 T02470185  RH  068%=      5-min Rain = 0
KLE1 110517Z 10006KT 25/18 A3009 RMK A01 T02460184  RH  068%=      5-min Rain = 0
KLE1 110518Z 10006KT 25/18 A3009 RMK A01 T02460184  RH  068%=      5-min Rain = 0
KLE1 110519Z 10006KT 25/18 A3009 RMK A01 T02460184  RH  069%=      5-min Rain = 0
KLE1 110520Z 10006KT 25/19 A3009 RMK A01 T02460185  RH  069%=      5-min Rain = 0
KLE1 110521Z 10005KT 25/19 A3009 RMK A01 T02450185  RH  069%=      5-min Rain = 0
KLE1 110522Z 10006KT 25/19 A3009 RMK A01 T02450185  RH  069%=      5-min Rain = 0
KLE1 110523Z 10006KT 25/19 A3009 RMK A01 T02450185  RH  069%=      5-min Rain = 0
KLE1 110524Z 10006KT 25/19 A3009 RMK A01 T02450185  RH  069%=      5-min Rain = 0
KLE1 110525Z 10006KT 24/19 A3009 RMK A01 T02440185  RH  069%=      5-min Rain = 0
KLE1 110526Z 10006KT 24/19 A3009 RMK A01 T02440185  RH  070%=      5-min Rain = 0
KLE1 110527Z 10006KT 24/19 A3009 RMK A01 T02440185  RH  070%=      5-min Rain = 0
KLE1 110528Z 09006KT 24/19 A3009 RMK A01 T02440186  RH  070%=      5-min Rain = 0
KLE1 110529Z 10006KT 24/19 A3009 RMK A01 T02440186  RH  070%=      5-min Rain = 0
KLE1 110530Z 10005KT 24/19 A3009 RMK A01 T02440186  RH  070%=      5-min Rain = 0
KLE1 110531Z 10005KT 24/19 A3009 RMK A01 T02440186  RH  070%=      5-min Rain = 0
KLE1 110532Z 10005KT 24/19 A3009 RMK A01 T02440186  RH  070%=      5-min Rain = 0
KLE1 110533Z 10005KT 24/19 A3009 RMK A01 T02440187  RH  070%=      5-min Rain = 0
KLE1 110534Z 11005KT 24/19 A3009 RMK A01 T02440187  RH  070%=      5-min Rain = 0
KLE1 110535Z 11005KT 24/19 A3009 RMK A01 T02440187  RH  071%=      5-min Rain = 0
KLE1 110536Z 11005KT 24/19 A3009 RMK A01 T02440187  RH  071%=      5-min Rain = 0
KLE1 110537Z 10005KT 24/19 A3009 RMK A01 T02440188  RH  071%=      5-min Rain = 0
KLE1 110538Z 10005KT 24/19 A3009 RMK A01 T02430187  RH  071%=      5-min Rain = 0
KLE1 110539Z 10005KT 24/19 A3009 RMK A01 T02430188  RH  071%=      5-min Rain = 0
KLE1 110540Z 10005KT 24/19 A3009 RMK A01 T02430188  RH  071%=      5-min Rain = 0
KLE1 110541Z 10006KT 24/19 A3009 RMK A01 T02430188  RH  071%=      5-min Rain = 0
KLE1 110542Z 10006KT 24/19 A3009 RMK A01 T02430188  RH  071%=      5-min Rain = 0
KLE1 110543Z 10006KT 24/19 A3009 RMK A01 T02420188  RH  072%=      5-min Rain = 0
KLE1 110544Z 10006KT 24/19 A3009 RMK A01 T02420188  RH  072%=      5-min Rain = 0
KLE1 110545Z 10006KT 24/19 A3009 RMK A01 T02420189  RH  072%=      5-min Rain = 0
KLE1 110546Z 10006KT 24/19 A3009 RMK A01 T02420189  RH  072%=      5-min Rain = 0
KLE1 110547Z 10006KT 24/19 A3009 RMK A01 T02420189  RH  072%=      5-min Rain = 0
KLE1 110548Z 10006KT 24/19 A3009 RMK A01 T02420189  RH  072%=      5-min Rain = 0
KLE1 110549Z 10006KT 24/19 A3009 RMK A01 T02420189  RH  072%=      5-min Rain = 0
KLE1 110550Z 10006KT 24/19 A3009 RMK A01 T02420189  RH  073%=      5-min Rain = 0
KLE1 110551Z 10006KT 24/19 A3009 RMK A01 T02410189  RH  073%=      5-min Rain = 0
KLE1 110552Z 10006KT 24/19 A3009 RMK A01 T02410189  RH  073%=      5-min Rain = 0
KLE1 110553Z 09006KT 24/19 A3009 RMK A01 T02410189  RH  073%=      5-min Rain = 0
KLE1 110554Z 09006KT 24/19 A3009 RMK A01 T02410189  RH  073%=      5-min Rain = 0
KLE1 110555Z 09006KT 24/19 A3009 RMK A01 T02400189  RH  073%=      5-min Rain = 0
KLE1 110556Z 09006KT 24/19 A3009 RMK A01 T02400190  RH  073%=      5-min Rain = 0
KLE1 110557Z 09006KT 24/19 A3009 RMK A01 T02400190  RH  074%=      5-min Rain = 0
KLE1 110558Z 09006KT 24/19 A3009 RMK A01 T02390190  RH  074%=      5-min Rain = 0
KLE1 110559Z 09006KT 24/19 A3009 RMK A01 T02390190  RH  074%=      5-min Rain = 0
KLE1 110600Z 08006KT 24/19 A3009 RMK A01 T02390191  RH  074%=      5-min Rain = 0
KLE1 110601Z 08006KT 24/19 A3009 RMK A01 T02390191  RH  074%=      5-min Rain = 0
KLE1 110602Z 08007KT 24/19 A3009 RMK A01 T02390191  RH  074%=      5-min Rain = 0
KLE1 110603Z 08007KT 24/19 A3009 RMK A01 T02390192  RH  075%=      5-min Rain = 0
KLE1 110604Z 08007KT 24/19 A3009 RMK A01 T02390192  RH  075%=      5-min Rain = 0
KLE1 110605Z 08007KT 24/19 A3009 RMK A01 T02390192  RH  075%=      5-min Rain = 0
KLE1 110606Z 08007KT 24/19 A3009 RMK A01 T02390192  RH  075%=      5-min Rain = 0
KLE1 110607Z 08007KT 24/19 A3009 RMK A01 T02390192  RH  075%=      5-min Rain = 0
KLE1 110608Z 08007KT 24/19 A3009 RMK A01 T02390193  RH  075%=      5-min Rain = 0
KLE1 110609Z 08007KT 24/19 A3009 RMK A01 T02390193  RH  075%=      5-min Rain = 0
KLE1 110610Z 08007KT 24/19 A3009 RMK A01 T02390193  RH  075%=      5-min Rain = 0
KLE1 110611Z 08007KT 24/19 A3009 RMK A01 T02390193  RH  076%=      5-min Rain = 0
KLE1 110612Z 08007KT 24/19 A3009 RMK A01 T02390193  RH  076%=      5-min Rain = 0
KLE1 110613Z 09007KT 24/19 A3009 RMK A01 T02390193  RH  076%=      5-min Rain = 0
KLE1 110614Z 08007KT 24/19 A3009 RMK A01 T02390194  RH  076%=      5-min Rain = 0
KLE1 110615Z 08007KT 24/19 A3009 RMK A01 T02390194  RH  076%=      5-min Rain = 0
KLE1 110616Z 09008KT 24/19 A3009 RMK A01 T02400194  RH  076%=      5-min Rain = 0
KLE1 110617Z 09008KT 24/20 A3009 RMK A01 T02400195  RH  076%=      5-min Rain = 0
KLE1 110618Z 09008KT 24/20 A3009 RMK A01 T02410195  RH  076%=      5-min Rain = 0
KLE1 110619Z 09008KT 24/20 A3009 RMK A01 T02420196  RH  075%=      5-min Rain = 0
KLE1 110620Z 09008KT 24/20 A3009 RMK A01 T02420196  RH  075%=      5-min Rain = 0
KLE1 110621Z 09007KT 24/20 A3009 RMK A01 T02430196  RH  075%=      5-min Rain = 0
KLE1 110622Z 08007KT 24/20 A3009 RMK A01 T02430196  RH  075%=      5-min Rain = 0
KLE1 110623Z 08007KT 24/20 A3009 RMK A01 T02430196  RH  075%=      5-min Rain = 0
KLE1 110624Z 09007KT 24/20 A3009 RMK A01 T02430196  RH  075%=      5-min Rain = 0
KLE1 110625Z 08007KT 24/20 A3009 RMK A01 T02430196  RH  075%=      5-min Rain = 0
KLE1 110626Z 08007KT 24/20 A3009 RMK A01 T02430196  RH  075%=      5-min Rain = 0
KLE1 110627Z 08007KT 24/20 A3009 RMK A01 T02420196  RH  075%=      5-min Rain = 0
KLE1 110628Z 08007KT 24/20 A3009 RMK A01 T02420196  RH  075%=      5-min Rain = 0
KLE1 110629Z 09006KT 24/20 A3009 RMK A01 T02420196  RH  075%=      5-min Rain = 0
KLE1 110630Z 09007KT 24/20 A3009 RMK A01 T02410195  RH  075%=      5-min Rain = 0
KLE1 110631Z 09007KT 24/20 A3009 RMK A01 T02420196  RH  076%=      5-min Rain = 0
KLE1 110632Z 09007KT 24/20 A3009 RMK A01 T02410196  RH  076%=      5-min Rain = 0
KLE1 110633Z 09007KT 24/20 A3009 RMK A01 T02410196  RH  076%=      5-min Rain = 0
KLE1 110634Z 09007KT 24/20 A3009 RMK A01 T02410196  RH  076%=      5-min Rain = 0
KLE1 110635Z 09007KT 24/20 A3009 RMK A01 T02410196  RH  076%=      5-min Rain = 0
KLE1 110636Z 09007KT 24/20 A3009 RMK A01 T02410196  RH  076%=      5-min Rain = 0
KLE1 110637Z 10007KT 24/20 A3009 RMK A01 T02410196  RH  076%=      5-min Rain = 0
KLE1 110638Z 10007KT 24/20 A3009 RMK A01 T02410196  RH  076%=      5-min Rain = 0
KLE1 110639Z 10006KT 24/20 A3009 RMK A01 T02410196  RH  076%=      5-min Rain = 0
KLE1 110640Z 10007KT 24/20 A3009 RMK A01 T02410196  RH  076%=      5-min Rain = 0
KLE1 110641Z 10006KT 24/20 A3009 RMK A01 T02410196  RH  076%=      5-min Rain = 0
KLE1 110642Z 10006KT 24/20 A3009 RMK A01 T02400195  RH  076%=      5-min Rain = 0
KLE1 110643Z 09006KT 24/20 A3009 RMK A01 T02400195  RH  076%=      5-min Rain = 0
KLE1 110644Z 09005KT 24/20 A3009 RMK A01 T02400195  RH  076%=      5-min Rain = 0
KLE1 110645Z 09005KT 24/20 A3008 RMK A01 T02390195  RH  076%=      5-min Rain = 0
KLE1 110646Z 09005KT 24/20 A3008 RMK A01 T02390195  RH  077%=      5-min Rain = 0
KLE1 110647Z 09005KT 24/20 A3008 RMK A01 T02380195  RH  077%=      5-min Rain = 0
KLE1 110648Z 09005KT 24/20 A3008 RMK A01 T02370195  RH  077%=      5-min Rain = 0
KLE1 110649Z 08006KT 24/20 A3008 RMK A01 T02370195  RH  077%=      5-min Rain = 0
KLE1 110650Z 08006KT 24/20 A3008 RMK A01 T02360195  RH  078%=      5-min Rain = 0
KLE1 110651Z 08006KT 24/20 A3008 RMK A01 T02360195  RH  078%=      5-min Rain = 0
KLE1 110652Z 08006KT 24/20 A3008 RMK A01 T02360195  RH  078%=      5-min Rain = 0
KLE1 110653Z 08006KT 24/20 A3008 RMK A01 T02360195  RH  078%=      5-min Rain = 0
KLE1 110654Z 08006KT 24/20 A3008 RMK A01 T02360195  RH  078%=      5-min Rain = 0
KLE1 110655Z 09006KT 24/20 A3008 RMK A01 T02350195  RH  078%=      5-min Rain = 0
KLE1 110656Z 08006KT 24/20 A3008 RMK A01 T02350195  RH  078%=      5-min Rain = 0
KLE1 110657Z 08006KT 24/20 A3008 RMK A01 T02350195  RH  078%=      5-min Rain = 0
KLE1 110658Z 08005KT 23/20 A3008 RMK A01 T02340195  RH  078%=      5-min Rain = 0
KLE1 110659Z 08005KT 23/20 A3008 RMK A01 T02340195  RH  079%=      5-min Rain = 0
KLE1 110700Z 08006KT 23/20 A3008 RMK A01 T02330195  RH  079%=      5-min Rain = 0
KLE1 110701Z 08006KT 23/20 A3008 RMK A01 T02340195  RH  079%=      5-min Rain = 0
KLE1 110702Z 08005KT 23/20 A3008 RMK A01 T02340195  RH  079%=      5-min Rain = 0
KLE1 110703Z 08005KT 23/20 A3008 RMK A01 T02330195  RH  079%=      5-min Rain = 0
KLE1 110704Z 08005KT 23/20 A3009 RMK A01 T02330195  RH  079%=      5-min Rain = 0
KLE1 110705Z 08005KT 23/20 A3009 RMK A01 T02330195  RH  079%=      5-min Rain = 0
KLE1 110706Z 08005KT 23/20 A3009 RMK A01 T02330195  RH  079%=      5-min Rain = 0
KLE1 110707Z 08005KT 23/20 A3009 RMK A01 T02330195  RH  079%=      5-min Rain = 0
KLE1 110708Z 08006KT 23/20 A3009 RMK A01 T02330195  RH  079%=      5-min Rain = 0
KLE1 110709Z 08005KT 23/20 A3009 RMK A01 T02330195  RH  079%=      5-min Rain = 0
KLE1 110710Z 08005KT 23/20 A3009 RMK A01 T02330195  RH  079%=      5-min Rain = 0
KLE1 110711Z 08005KT 23/20 A3009 RMK A01 T02330195  RH  079%=      5-min Rain = 0
KLE1 110712Z 07005KT 23/20 A3009 RMK A01 T02330195  RH  079%=      5-min Rain = 0
KLE1 110713Z 08005KT 23/20 A3009 RMK A01 T02330195  RH  079%=      5-min Rain = 0
KLE1 110714Z 08006KT 23/20 A3009 RMK A01 T02330195  RH  079%=      5-min Rain = 0
KLE1 110715Z 08005KT 23/20 A3009 RMK A01 T02330195  RH  079%=      5-min Rain = 0
KLE1 110716Z 08006KT 23/20 A3009 RMK A01 T02330195  RH  079%=      5-min Rain = 0
KLE1 110717Z 08006KT 23/20 A3009 RMK A01 T02320195  RH  080%=      5-min Rain = 0
KLE1 110718Z 07006KT 23/20 A3009 RMK A01 T02320195  RH  080%=      5-min Rain = 0
KLE1 110719Z 07006KT 23/20 A3009 RMK A01 T02320195  RH  080%=      5-min Rain = 0
KLE1 110720Z 07006KT 23/20 A3009 RMK A01 T02320196  RH  080%=      5-min Rain = 0
KLE1 110721Z 07005KT 23/20 A3009 RMK A01 T02320196  RH  080%=      5-min Rain = 0
KLE1 110722Z 07005KT 23/20 A3009 RMK A01 T02320196  RH  080%=      5-min Rain = 0
KLE1 110723Z 08005KT 23/20 A3009 RMK A01 T02320196  RH  080%=      5-min Rain = 0
KLE1 110724Z 08004KT 23/20 A3009 RMK A01 T02320196  RH  080%=      5-min Rain = 0
KLE1 110725Z 08004KT 23/20 A3009 RMK A01 T02320195  RH  080%=      5-min Rain = 0
KLE1 110726Z 07004KT 23/20 A3009 RMK A01 T02320195  RH  080%=      5-min Rain = 0
KLE1 110727Z 07004KT 23/20 A3009 RMK A01 T02320195  RH  080%=      5-min Rain = 0
KLE1 110728Z 08004KT 23/20 A3009 RMK A01 T02320195  RH  080%=      5-min Rain = 0
KLE1 110729Z 08004KT 23/20 A3009 RMK A01 T02320195  RH  080%=      5-min Rain = 0
KLE1 110730Z 07003KT 23/20 A3009 RMK A01 T02320196  RH  080%=      5-min Rain = 0
KLE1 110731Z 08003KT 23/20 A3009 RMK A01 T02320195  RH  080%=      5-min Rain = 0
KLE1 110732Z 07003KT 23/20 A3009 RMK A01 T02320195  RH  080%=      5-min Rain = 0
KLE1 110733Z 07003KT 23/20 A3009 RMK A01 T02320195  RH  080%=      5-min Rain = 0
KLE1 110734Z 06003KT 23/20 A3009 RMK A01 T02320195  RH  080%=      5-min Rain = 0
KLE1 110735Z 06003KT 23/20 A3009 RMK A01 T02320195  RH  080%=      5-min Rain = 0
KLE1 110736Z 06004KT 23/20 A3009 RMK A01 T02320195  RH  080%=      5-min Rain = 0
KLE1 110737Z 05003KT 23/20 A3009 RMK A01 T02320195  RH  080%=      5-min Rain = 0
KLE1 110738Z 05003KT 23/20 A3009 RMK A01 T02320195  RH  080%=      5-min Rain = 0
KLE1 110739Z 04004KT 23/20 A3009 RMK A01 T02320195  RH  080%=      5-min Rain = 0
KLE1 110740Z 04004KT 23/20 A3009 RMK A01 T02310195  RH  080%=      5-min Rain = 0
KLE1 110741Z 04004KT 23/20 A3009 RMK A01 T02310195  RH  080%=      5-min Rain = 0
KLE1 110742Z 05004KT 23/20 A3009 RMK A01 T02310195  RH  080%=      5-min Rain = 0
KLE1 110743Z 05004KT 23/20 A3009 RMK A01 T02310195  RH  080%=      5-min Rain = 0
KLE1 110744Z 05004KT 23/20 A3009 RMK A01 T02310195  RH  081%=      5-min Rain = 0
KLE1 110745Z 05004KT 23/20 A3009 RMK A01 T02310196  RH  080%=      5-min Rain = 0
KLE1 110746Z 06003KT 23/20 A3009 RMK A01 T02310196  RH  080%=      5-min Rain = 0
KLE1 110747Z 06003KT 23/20 A3009 RMK A01 T02310195  RH  080%=      5-min Rain = 0
KLE1 110748Z 06003KT 23/20 A3009 RMK A01 T02310195  RH  080%=      5-min Rain = 0
KLE1 110749Z 07003KT 23/20 A3009 RMK A01 T02310195  RH  080%=      5-min Rain = 0
KLE1 110750Z 07003KT 23/20 A3009 RMK A01 T02310195  RH  080%=      5-min Rain = 0
KLE1 110751Z 07003KT 23/20 A3009 RMK A01 T02310195  RH  080%=      5-min Rain = 0
KLE1 110752Z 07004KT 23/20 A3009 RMK A01 T02320196  RH  080%=      5-min Rain = 0
KLE1 110753Z 07004KT 23/20 A3009 RMK A01 T02310195  RH  080%=      5-min Rain = 0
KLE1 110754Z 07004KT 23/20 A3009 RMK A01 T02310196  RH  080%=      5-min Rain = 0
KLE1 110755Z 07004KT 23/20 A3009 RMK A01 T02310196  RH  080%=      5-min Rain = 0
KLE1 110756Z 07004KT 23/20 A3009 RMK A01 T02310196  RH  080%=      5-min Rain = 0
KLE1 110757Z 07004KT 23/20 A3009 RMK A01 T02300195  RH  081%=      5-min Rain = 0
KLE1 110758Z 07004KT 23/20 A3009 RMK A01 T02290195  RH  081%=      5-min Rain = 0
KLE1 110759Z 07005KT 23/20 A3009 RMK A01 T02290195  RH  081%=      5-min Rain = 0
KLE1 110800Z 07005KT 23/20 A3009 RMK A01 T02290195  RH  081%=      5-min Rain = 0
KLE1 110801Z 07004KT 23/20 A3009 RMK A01 T02280195  RH  082%=      5-min Rain = 0
KLE1 110802Z 07004KT 23/20 A3009 RMK A01 T02280195  RH  082%=      5-min Rain = 0
KLE1 110803Z 07004KT 23/20 A3009 RMK A01 T02280196  RH  082%=      5-min Rain = 0
KLE1 110804Z 07004KT 23/20 A3009 RMK A01 T02280195  RH  082%=      5-min Rain = 0
KLE1 110805Z 06004KT 23/20 A3009 RMK A01 T02280195  RH  082%=      5-min Rain = 0
KLE1 110806Z 06003KT 23/20 A3009 RMK A01 T02280195  RH  082%=      5-min Rain = 0
KLE1 110807Z 06003KT 23/20 A3009 RMK A01 T02280195  RH  082%=      5-min Rain = 0
KLE1 110808Z 06003KT 23/20 A3009 RMK A01 T02280195  RH  082%=      5-min Rain = 0
KLE1 110809Z 06003KT 23/20 A3009 RMK A01 T02280195  RH  082%=      5-min Rain = 0
KLE1 110810Z 06003KT 23/20 A3009 RMK A01 T02280195  RH  082%=      5-min Rain = 0
KLE1 110811Z 06003KT 23/20 A3009 RMK A01 T02280195  RH  082%=      5-min Rain = 0
KLE1 110812Z 06003KT 23/20 A3009 RMK A01 T02280195  RH  082%=      5-min Rain = 0
KLE1 110813Z 06003KT 23/20 A3009 RMK A01 T02290195  RH  081%=      5-min Rain = 0
KLE1 110814Z 06002KT 23/20 A3009 RMK A01 T02290195  RH  081%=      5-min Rain = 0
KLE1 110815Z 07002KT 23/20 A3008 RMK A01 T02290195  RH  081%=      5-min Rain = 0
KLE1 110816Z 07002KT 23/20 A3008 RMK A01 T02300195  RH  081%=      5-min Rain = 0
KLE1 110817Z 07002KT 23/20 A3008 RMK A01 T02300196  RH  081%=      5-min Rain = 0
KLE1 110818Z 09002KT 23/20 A3008 RMK A01 T02310196  RH  081%=      5-min Rain = 0
KLE1 110819Z 09002KT 23/20 A3008 RMK A01 T02310196  RH  080%=      5-min Rain = 0
KLE1 110820Z 09002KT 23/20 A3008 RMK A01 T02320196  RH  080%=      5-min Rain = 0
KLE1 110821Z 09002KT 23/20 A3008 RMK A01 T02320196  RH  080%=      5-min Rain = 0
KLE1 110822Z 09002KT 23/20 A3008 RMK A01 T02320196  RH  080%=      5-min Rain = 0
KLE1 110823Z 09002KT 23/20 A3008 RMK A01 T02330196  RH  080%=      5-min Rain = 0
KLE1 110824Z 10002KT 23/20 A3008 RMK A01 T02330196  RH  079%=      5-min Rain = 0
KLE1 110825Z 10002KT 23/20 A3008 RMK A01 T02330196  RH  079%=      5-min Rain = 0
KLE1 110826Z 09001KT 23/20 A3008 RMK A01 T02330195  RH  079%=      5-min Rain = 0
KLE1 110827Z 09001KT 23/20 A3008 RMK A01 T02330196  RH  079%=      5-min Rain = 0
KLE1 110828Z 09001KT 23/20 A3008 RMK A01 T02330196  RH  079%=      5-min Rain = 0
KLE1 110829Z 09001KT 23/20 A3008 RMK A01 T02330196  RH  079%=      5-min Rain = 0
KLE1 110830Z 07002KT 23/20 A3008 RMK A01 T02330195  RH  079%=      5-min Rain = 0
KLE1 110831Z 07001KT 23/20 A3008 RMK A01 T02330196  RH  079%=      5-min Rain = 0
KLE1 110832Z 06002KT 23/20 A3008 RMK A01 T02340196  RH  079%=      5-min Rain = 0
KLE1 110833Z 06002KT 23/20 A3008 RMK A01 T02340196  RH  079%=      5-min Rain = 0
KLE1 110834Z 06002KT 23/20 A3008 RMK A01 T02340196  RH  079%=      5-min Rain = 0
KLE1 110835Z 07002KT 23/20 A3008 RMK A01 T02340195  RH  079%=      5-min Rain = 0
KLE1 110836Z 07002KT 23/20 A3008 RMK A01 T02340196  RH  079%=      5-min Rain = 0
KLE1 110837Z 08002KT 23/20 A3008 RMK A01 T02340196  RH  079%=      5-min Rain = 0
KLE1 110838Z 07002KT 23/20 A3008 RMK A01 T02340196  RH  079%=      5-min Rain = 0
KLE1 110839Z 07002KT 23/20 A3008 RMK A01 T02340196  RH  079%=      5-min Rain = 0
KLE1 110840Z 07002KT 23/20 A3008 RMK A01 T02340196  RH  079%=      5-min Rain = 0
KLE1 110841Z 07002KT 24/20 A3008 RMK A01 T02350196  RH  079%=      5-min Rain = 0
KLE1 110842Z 08002KT 24/20 A3008 RMK A01 T02350196  RH  079%=      5-min Rain = 0
KLE1 110843Z 07003KT 24/20 A3008 RMK A01 T02350197  RH  079%=      5-min Rain = 0
KLE1 110844Z 07003KT 23/20 A3008 RMK A01 T02340196  RH  079%=      5-min Rain = 0
KLE1 110845Z 07003KT 23/20 A3008 RMK A01 T02340196  RH  079%=      5-min Rain = 0
KLE1 110846Z 07003KT 23/20 A3008 RMK A01 T02340196  RH  079%=      5-min Rain = 0
KLE1 110847Z 07003KT 23/20 A3008 RMK A01 T02340196  RH  080%=      5-min Rain = 0
KLE1 110848Z 08003KT 23/20 A3008 RMK A01 T02330196  RH  080%=      5-min Rain = 0
KLE1 110849Z 08002KT 23/20 A3008 RMK A01 T02330197  RH  080%=      5-min Rain = 0
KLE1 110850Z 07002KT 23/20 A3008 RMK A01 T02330197  RH  080%=      5-min Rain = 0
KLE1 110851Z 07002KT 23/20 A3008 RMK A01 T02330196  RH  080%=      5-min Rain = 0
KLE1 110852Z 08002KT 23/20 A3008 RMK A01 T02330197  RH  080%=      5-min Rain = 0
KLE1 110853Z 07002KT 23/20 A3008 RMK A01 T02330197  RH  080%=      5-min Rain = 0
KLE1 110854Z 08002KT 23/20 A3008 RMK A01 T02330196  RH  080%=      5-min Rain = 0
KLE1 110855Z 08002KT 23/20 A3008 RMK A01 T02330197  RH  080%=      5-min Rain = 0
KLE1 110856Z 09002KT 23/20 A3008 RMK A01 T02330197  RH  080%=      5-min Rain = 0
KLE1 110857Z 09002KT 23/20 A3008 RMK A01 T02330196  RH  080%=      5-min Rain = 0
KLE1 110858Z 09002KT 23/20 A3008 RMK A01 T02330196  RH  080%=      5-min Rain = 0
KLE1 110859Z 08002KT 23/20 A3008 RMK A01 T02320196  RH  080%=      5-min Rain = 0
KLE1 110900Z 09002KT 23/20 A3008 RMK A01 T02330196  RH  080%=      5-min Rain = 0
KLE1 110901Z 08002KT 23/20 A3008 RMK A01 T02330196  RH  080%=      5-min Rain = 0
KLE1 110902Z 09002KT 23/20 A3008 RMK A01 T02330197  RH  080%=      5-min Rain = 0
KLE1 110903Z 09002KT 23/20 A3008 RMK A01 T02330196  RH  080%=      5-min Rain = 0
KLE1 110904Z 09002KT 23/20 A3008 RMK A01 T02330196  RH  080%=      5-min Rain = 0
KLE1 110905Z 09002KT 23/20 A3008 RMK A01 T02330196  RH  080%=      5-min Rain = 0
KLE1 110906Z 09003KT 23/20 A3008 RMK A01 T02330196  RH  080%=      5-min Rain = 0
KLE1 110907Z 09002KT 23/20 A3008 RMK A01 T02330196  RH  080%=      5-min Rain = 0
KLE1 110908Z 09002KT 23/20 A3008 RMK A01 T02330197  RH  080%=      5-min Rain = 0
KLE1 110909Z 09003KT 23/20 A3008 RMK A01 T02330197  RH  080%=      5-min Rain = 0
KLE1 110910Z 09003KT 23/20 A3008 RMK A01 T02320197  RH  080%=      5-min Rain = 0
KLE1 110911Z 09003KT 23/20 A3008 RMK A01 T02320197  RH  080%=      5-min Rain = 0
KLE1 110912Z 08003KT 23/20 A3008 RMK A01 T02320197  RH  081%=      5-min Rain = 0
KLE1 110913Z 08003KT 23/20 A3008 RMK A01 T02320197  RH  081%=      5-min Rain = 0
KLE1 110914Z 09003KT 23/20 A3008 RMK A01 T02320197  RH  081%=      5-min Rain = 0
KLE1 110915Z 08003KT 23/20 A3008 RMK A01 T02320197  RH  081%=      5-min Rain = 0
KLE1 110916Z 09002KT 23/20 A3008 RMK A01 T02310197  RH  081%=      5-min Rain = 0
KLE1 110917Z 09002KT 23/20 A3008 RMK A01 T02310198  RH  081%=      5-min Rain = 0
KLE1 110918Z 09002KT 23/20 A3008 RMK A01 T02310197  RH  081%=      5-min Rain = 0
KLE1 110919Z 09003KT 23/20 A3008 RMK A01 T02310197  RH  081%=      5-min Rain = 0
KLE1 110920Z 09003KT 23/20 A3008 RMK A01 T02310197  RH  081%=      5-min Rain = 0
KLE1 110921Z 09003KT 23/20 A3008 RMK A01 T02310197  RH  081%=      5-min Rain = 0
KLE1 110922Z 09003KT 23/20 A3008 RMK A01 T02310197  RH  081%=      5-min Rain = 0
KLE1 110923Z 08003KT 23/20 A3008 RMK A01 T02310197  RH  081%=      5-min Rain = 0
KLE1 110924Z 07002KT 23/20 A3008 RMK A01 T02310197  RH  081%=      5-min Rain = 0
KLE1 110925Z 08002KT 23/20 A3008 RMK A01 T02320197  RH  081%=      5-min Rain = 0
KLE1 110926Z 08002KT 23/20 A3008 RMK A01 T02320197  RH  081%=      5-min Rain = 0
KLE1 110927Z 10002KT 23/20 A3008 RMK A01 T02320197  RH  081%=      5-min Rain = 0
KLE1 110928Z 10003KT 23/20 A3008 RMK A01 T02320197  RH  081%=      5-min Rain = 0
KLE1 110929Z 12002KT 23/20 A3007 RMK A01 T02320197  RH  081%=      5-min Rain = 0
KLE1 110930Z 11002KT 23/20 A3007 RMK A01 T02320196  RH  080%=      5-min Rain = 0
KLE1 110931Z 10002KT 23/20 A3007 RMK A01 T02320196  RH  080%=      5-min Rain = 0
KLE1 110932Z 12002KT 23/20 A3007 RMK A01 T02330196  RH  080%=      5-min Rain = 0
KLE1 110933Z 12003KT 23/20 A3007 RMK A01 T02330197  RH  080%=      5-min Rain = 0
KLE1 110934Z 14003KT 23/20 A3007 RMK A01 T02330197  RH  080%=      5-min Rain = 0
KLE1 110935Z 12002KT 23/20 A3007 RMK A01 T02330196  RH  079%=      5-min Rain = 0
KLE1 110936Z 11002KT 23/20 A3007 RMK A01 T02340196  RH  079%=      5-min Rain = 0
KLE1 110937Z 11002KT 23/20 A3007 RMK A01 T02330197  RH  080%=      5-min Rain = 0
KLE1 110938Z 12002KT 23/20 A3007 RMK A01 T02340196  RH  079%=      5-min Rain = 0
KLE1 110939Z 13003KT 23/20 A3007 RMK A01 T02340195  RH  079%=      5-min Rain = 0
KLE1 110940Z 11003KT 23/20 A3007 RMK A01 T02340195  RH  078%=      5-min Rain = 0
KLE1 110941Z 11002KT 24/20 A3007 RMK A01 T02350196  RH  079%=      5-min Rain = 0
KLE1 110942Z 12003KT 24/20 A3007 RMK A01 T02350195  RH  078%=      5-min Rain = 0
KLE1 110943Z 12003KT 24/19 A3007 RMK A01 T02350194  RH  078%=      5-min Rain = 0
KLE1 110944Z 14003KT 24/20 A3007 RMK A01 T02350195  RH  078%=      5-min Rain = 0
KLE1 110945Z 14002KT 24/20 A3007 RMK A01 T02350195  RH  078%=      5-min Rain = 0
KLE1 110946Z 15002KT 24/19 A3007 RMK A01 T02350194  RH  078%=      5-min Rain = 0
KLE1 110947Z 14003KT 24/19 A3007 RMK A01 T02350194  RH  077%=      5-min Rain = 0
KLE1 110948Z 15002KT 24/19 A3007 RMK A01 T02350194  RH  078%=      5-min Rain = 0
KLE1 110949Z 16003KT 24/19 A3007 RMK A01 T02350193  RH  077%=      5-min Rain = 0
KLE1 110950Z 15003KT 24/19 A3007 RMK A01 T02360194  RH  077%=      5-min Rain = 0
KLE1 110951Z 15002KT 24/19 A3007 RMK A01 T02350193  RH  077%=      5-min Rain = 0
KLE1 110952Z 15001KT 24/19 A3007 RMK A01 T02360194  RH  077%=      5-min Rain = 0
KLE1 110953Z 16001KT 24/19 A3007 RMK A01 T02350194  RH  077%=      5-min Rain = 0
KLE1 110954Z 18001KT 24/19 A3007 RMK A01 T02350193  RH  077%=      5-min Rain = 0
KLE1 110955Z 19002KT 24/19 A3007 RMK A01 T02350193  RH  077%=      5-min Rain = 0
KLE1 110956Z 17002KT 24/19 A3007 RMK A01 T02350193  RH  077%=      5-min Rain = 0
KLE1 110957Z 18002KT 24/19 A3007 RMK A01 T02350193  RH  077%=      5-min Rain = 0
KLE1 110958Z 17003KT 24/19 A3007 RMK A01 T02350193  RH  077%=      5-min Rain = 0
KLE1 110959Z 20002KT 24/19 A3007 RMK A01 T02350192  RH  077%=      5-min Rain = 0
KLE1 111000Z 19002KT 24/19 A3007 RMK A01 T02350192  RH  077%=      5-min Rain = 0
KLE1 111001Z 17001KT 24/19 A3007 RMK A01 T02350192  RH  077%=      5-min Rain = 0
KLE1 111002Z 15001KT 24/19 A3007 RMK A01 T02350192  RH  077%=      5-min Rain = 0
KLE1 111003Z 18001KT 24/19 A3007 RMK A01 T02350192  RH  077%=      5-min Rain = 0
KLE1 111004Z 20000KT 24/19 A3007 RMK A01 T02350192  RH  077%=      5-min Rain = 0
KLE1 111005Z 21002KT 24/19 A3007 RMK A01 T02350193  RH  077%=      5-min Rain = 0
KLE1 111006Z 20001KT 24/19 A3007 RMK A01 T02350192  RH  077%=      5-min Rain = 0
KLE1 111007Z 22001KT 24/19 A3007 RMK A01 T02350192  RH  077%=      5-min Rain = 0
KLE1 111008Z 22001KT 24/19 A3007 RMK A01 T02350192  RH  077%=      5-min Rain = 0
KLE1 111009Z 21001KT 24/19 A3007 RMK A01 T02360192  RH  077%=      5-min Rain = 0
KLE1 111010Z 20002KT 24/19 A3007 RMK A01 T02350192  RH  076%=      5-min Rain = 0
KLE1 111011Z 19001KT 24/19 A3007 RMK A01 T02360192  RH  076%=      5-min Rain = 0
KLE1 111012Z 19001KT 24/19 A3007 RMK A01 T02350192  RH  076%=      5-min Rain = 0
KLE1 111013Z 20001KT 24/19 A3007 RMK A01 T02350192  RH  076%=      5-min Rain = 0
KLE1 111014Z 20001KT 24/19 A3007 RMK A01 T02350191  RH  076%=      5-min Rain = 0
KLE1 111015Z 20001KT 24/19 A3007 RMK A01 T02350191  RH  076%=      5-min Rain = 0
KLE1 111016Z 20001KT 24/19 A3007 RMK A01 T02350191  RH  076%=      5-min Rain = 0
KLE1 111017Z 20000KT 24/19 A3007 RMK A01 T02350191  RH  076%=      5-min Rain = 0
KLE1 111018Z 00000KT 24/19 A3007 RMK A01 T02350191  RH  076%=      5-min Rain = 0
KLE1 111019Z 00000KT 23/19 A3007 RMK A01 T02340191  RH  076%=      5-min Rain = 0
KLE1 111020Z 00000KT 23/19 A3007 RMK A01 T02340191  RH  076%=      5-min Rain = 0
KLE1 111021Z 00000KT 23/19 A3007 RMK A01 T02340190  RH  076%=      5-min Rain = 0
KLE1 111022Z 00000KT 23/19 A3007 RMK A01 T02340190  RH  077%=      5-min Rain = 0
KLE1 111023Z 00000KT 23/19 A3007 RMK A01 T02330190  RH  077%=      5-min Rain = 0
KLE1 111024Z 00000KT 23/19 A3007 RMK A01 T02330190  RH  077%=      5-min Rain = 0
KLE1 111025Z 00000KT 23/19 A3007 RMK A01 T02330190  RH  077%=      5-min Rain = 0
KLE1 111026Z 00000KT 23/19 A3007 RMK A01 T02330190  RH  077%=      5-min Rain = 0
KLE1 111027Z 00000KT 23/19 A3007 RMK A01 T02330190  RH  077%=      5-min Rain = 0
KLE1 111028Z 00000KT 23/19 A3007 RMK A01 T02330190  RH  077%=      5-min Rain = 0
KLE1 111029Z 00000KT 23/19 A3007 RMK A01 T02330190  RH  077%=      5-min Rain = 0
KLE1 111030Z 00000KT 23/19 A3007 RMK A01 T02330190  RH  077%=      5-min Rain = 0
KLE1 111031Z 00000KT 23/19 A3007 RMK A01 T02330190  RH  077%=      5-min Rain = 0
KLE1 111032Z 00000KT 23/19 A3007 RMK A01 T02330190  RH  076%=      5-min Rain = 0
KLE1 111033Z 00000KT 23/19 A3007 RMK A01 T02340190  RH  076%=      5-min Rain = 0
KLE1 111034Z 00000KT 23/19 A3007 RMK A01 T02340190  RH  076%=      5-min Rain = 0
KLE1 111035Z 00000KT 23/19 A3007 RMK A01 T02340190  RH  076%=      5-min Rain = 0
KLE1 111036Z 00000KT 24/19 A3007 RMK A01 T02350190  RH  076%=      5-min Rain = 0
KLE1 111037Z 00000KT 23/19 A3006 RMK A01 T02340190  RH  076%=      5-min Rain = 0
KLE1 111038Z 00000KT 24/19 A3006 RMK A01 T02350190  RH  076%=      5-min Rain = 0
KLE1 111039Z 00000KT 23/19 A3006 RMK A01 T02340190  RH  076%=      5-min Rain = 0
KLE1 111040Z 00000KT 23/19 A3006 RMK A01 T02340190  RH  076%=      5-min Rain = 0
KLE1 111041Z 00000KT 23/19 A3006 RMK A01 T02340190  RH  076%=      5-min Rain = 0
KLE1 111042Z 00000KT 24/19 A3006 RMK A01 T02350191  RH  077%=      5-min Rain = 0
KLE1 111043Z 00000KT 23/19 A3006 RMK A01 T02340191  RH  077%=      5-min Rain = 0
KLE1 111044Z 00000KT 23/19 A3006 RMK A01 T02340191  RH  077%=      5-min Rain = 0
KLE1 111045Z 00000KT 23/19 A3006 RMK A01 T02340191  RH  077%=      5-min Rain = 0
KLE1 111046Z 09000KT 23/19 A3006 RMK A01 T02340191  RH  077%=      5-min Rain = 0
KLE1 111047Z 09001KT 23/19 A3006 RMK A01 T02340190  RH  076%=      5-min Rain = 0
KLE1 111048Z 09001KT 23/19 A3006 RMK A01 T02340190  RH  076%=      5-min Rain = 0
KLE1 111049Z 09001KT 24/19 A3006 RMK A01 T02350190  RH  076%=      5-min Rain = 0
KLE1 111050Z 08001KT 24/19 A3006 RMK A01 T02350190  RH  076%=      5-min Rain = 0
KLE1 111051Z 06001KT 24/19 A3006 RMK A01 T02350191  RH  076%=      5-min Rain = 0
KLE1 111052Z 06001KT 24/19 A3006 RMK A01 T02350193  RH  077%=      5-min Rain = 0
KLE1 111053Z 05001KT 24/19 A3006 RMK A01 T02350194  RH  078%=      5-min Rain = 0
KLE1 111054Z 03001KT 23/19 A3006 RMK A01 T02340194  RH  078%=      5-min Rain = 0
KLE1 111055Z 02001KT 23/19 A3006 RMK A01 T02330194  RH  079%=      5-min Rain = 0
KLE1 111056Z 35001KT 23/20 A3006 RMK A01 T02330195  RH  079%=      5-min Rain = 0
KLE1 111057Z 35001KT 23/19 A3006 RMK A01 T02320194  RH  079%=      5-min Rain = 0
KLE1 111058Z 36002KT 23/19 A3006 RMK A01 T02320194  RH  079%=      5-min Rain = 0
KLE1 111059Z 36002KT 23/19 A3006 RMK A01 T02310194  RH  080%=      5-min Rain = 0
KLE1 111100Z 35001KT 23/20 A3006 RMK A01 T02310195  RH  080%=      5-min Rain = 0
KLE1 111101Z 34001KT 23/20 A3006 RMK A01 T02300195  RH  081%=      5-min Rain = 0
KLE1 111102Z 33001KT 23/20 A3006 RMK A01 T02290195  RH  081%=      5-min Rain = 0
KLE1 111103Z 28000KT 23/19 A3006 RMK A01 T02290193  RH  080%=      5-min Rain = 0
KLE1 111104Z 28001KT 23/19 A3006 RMK A01 T02290192  RH  080%=      5-min Rain = 0
KLE1 111105Z 27001KT 23/19 A3006 RMK A01 T02290192  RH  080%=      5-min Rain = 0
KLE1 111106Z 27001KT 23/19 A3006 RMK A01 T02300193  RH  080%=      5-min Rain = 0
KLE1 111107Z 27002KT 23/19 A3006 RMK A01 T02310191  RH  078%=      5-min Rain = 0
KLE1 111108Z 26001KT 23/19 A3006 RMK A01 T02310192  RH  078%=      5-min Rain = 0
KLE1 111109Z 25001KT 23/19 A3006 RMK A01 T02320191  RH  077%=      5-min Rain = 0
KLE1 111110Z 26001KT 23/19 A3006 RMK A01 T02330190  RH  077%=      5-min Rain = 0
KLE1 111111Z 26001KT 23/19 A3006 RMK A01 T02340190  RH  076%=      5-min Rain = 0
KLE1 111112Z 29001KT 23/19 A3006 RMK A01 T02340190  RH  076%=      5-min Rain = 0
KLE1 111113Z 29001KT 24/19 A3006 RMK A01 T02350192  RH  077%=      5-min Rain = 0
KLE1 111114Z 30001KT 24/19 A3006 RMK A01 T02350194  RH  078%=      5-min Rain = 0
KLE1 111115Z 31001KT 24/20 A3006 RMK A01 T02350196  RH  079%=      5-min Rain = 0
KLE1 111116Z 31002KT 23/20 A3006 RMK A01 T02340197  RH  080%=      5-min Rain = 0
KLE1 111117Z 31002KT 23/20 A3006 RMK A01 T02330197  RH  080%=      5-min Rain = 0
KLE1 111118Z 32002KT 23/20 A3006 RMK A01 T02310197  RH  081%=      5-min Rain = 0
KLE1 111119Z 32001KT 23/20 A3006 RMK A01 T02310197  RH  081%=      5-min Rain = 0
KLE1 111120Z 34001KT 23/20 A3006 RMK A01 T02300197  RH  082%=      5-min Rain = 0
KLE1 111121Z 32001KT 23/20 A3006 RMK A01 T02300197  RH  082%=      5-min Rain = 0
KLE1 111122Z 35001KT 23/20 A3006 RMK A01 T02290197  RH  082%=      5-min Rain = 0
KLE1 111123Z 35001KT 23/20 A3006 RMK A01 T02300197  RH  082%=      5-min Rain = 0
KLE1 111124Z 34001KT 23/20 A3006 RMK A01 T02290197  RH  082%=      5-min Rain = 0
KLE1 111125Z 35002KT 23/20 A3007 RMK A01 T02290197  RH  082%=      5-min Rain = 0
KLE1 111126Z 35002KT 23/20 A3007 RMK A01 T02300197  RH  082%=      5-min Rain = 0
KLE1 111127Z 34001KT 23/20 A3007 RMK A01 T02300197  RH  082%=      5-min Rain = 0
KLE1 111128Z 34001KT 23/20 A3007 RMK A01 T02290197  RH  082%=      5-min Rain = 0
KLE1 111129Z 33001KT 23/20 A3007 RMK A01 T02300197  RH  082%=      5-min Rain = 0
KLE1 111130Z 34001KT 23/20 A3007 RMK A01 T02300197  RH  082%=      5-min Rain = 0
KLE1 111131Z 33000KT 23/20 A3007 RMK A01 T02300197  RH  082%=      5-min Rain = 0
KLE1 111132Z 00000KT 23/20 A3007 RMK A01 T02300197  RH  082%=      5-min Rain = 0
KLE1 111133Z 00000KT 23/20 A3007 RMK A01 T02300197  RH  082%=      5-min Rain = 0
KLE1 111134Z 00000KT 23/20 A3007 RMK A01 T02290196  RH  081%=      5-min Rain = 0
KLE1 111135Z 00000KT 23/19 A3007 RMK A01 T02290194  RH  080%=      5-min Rain = 0
KLE1 111136Z 00000KT 23/19 A3007 RMK A01 T02300192  RH  079%=      5-min Rain = 0
KLE1 111137Z 00000KT 23/19 A3007 RMK A01 T02310192  RH  079%=      5-min Rain = 0
KLE1 111138Z 00000KT 23/19 A3007 RMK A01 T02310191  RH  078%=      5-min Rain = 0
KLE1 111139Z 00000KT 23/19 A3007 RMK A01 T02320191  RH  078%=      5-min Rain = 0
KLE1 111140Z 00000KT 23/19 A3007 RMK A01 T02330191  RH  077%=      5-min Rain = 0
KLE1 111141Z 00000KT 23/19 A3007 RMK A01 T02340191  RH  077%=      5-min Rain = 0
KLE1 111142Z 13000KT 24/19 A3007 RMK A01 T02350191  RH  076%=      5-min Rain = 0
KLE1 111143Z 12001KT 24/19 A3007 RMK A01 T02360191  RH  076%=      5-min Rain = 0
KLE1 111144Z 08002KT 24/19 A3007 RMK A01 T02360194  RH  077%=      5-min Rain = 0
KLE1 111145Z 08002KT 24/20 A3007 RMK A01 T02360197  RH  079%=      5-min Rain = 0
KLE1 111146Z 08002KT 23/20 A3007 RMK A01 T02340198  RH  080%=      5-min Rain = 0
KLE1 111147Z 08003KT 23/20 A3007 RMK A01 T02320198  RH  081%=      5-min Rain = 0
KLE1 111148Z 08003KT 23/20 A3007 RMK A01 T02310199  RH  082%=      5-min Rain = 0
KLE1 111149Z 07003KT 23/20 A3007 RMK A01 T02290199  RH  083%=      5-min Rain = 0
KLE1 111150Z 07003KT 23/20 A3007 RMK A01 T02290199  RH  083%=      5-min Rain = 0
KLE1 111151Z 07003KT 23/20 A3007 RMK A01 T02280199  RH  084%=      5-min Rain = 0
KLE1 111152Z 08003KT 23/20 A3007 RMK A01 T02270200  RH  084%=      5-min Rain = 0
KLE1 111153Z 07003KT 23/20 A3007 RMK A01 T02270200  RH  085%=      5-min Rain = 0
KLE1 111154Z 07003KT 23/20 A3008 RMK A01 T02270200  RH  085%=      5-min Rain = 0
KLE1 111155Z 07003KT 23/20 A3008 RMK A01 T02260199  RH  085%=      5-min Rain = 0
KLE1 111156Z 08003KT 23/20 A3008 RMK A01 T02260199  RH  085%=      5-min Rain = 0
KLE1 111157Z 08003KT 23/20 A3008 RMK A01 T02260198  RH  084%=      5-min Rain = 0
KLE1 111158Z 07004KT 23/20 A3008 RMK A01 T02250198  RH  085%=      5-min Rain = 0
KLE1 111159Z 07004KT 23/20 A3008 RMK A01 T02250198  RH  085%=      5-min Rain = 0
KLE1 111200Z 07004KT 22/20 A3008 RMK A01 T02240198  RH  085%=      5-min Rain = 0
KLE1 111201Z 07004KT 22/20 A3008 RMK A01 T02240198  RH  085%=      5-min Rain = 0
KLE1 111202Z 07004KT 22/20 A3008 RMK A01 T02240199  RH  086%=      5-min Rain = 0
KLE1 111203Z 08004KT 22/20 A3008 RMK A01 T02240199  RH  086%=      5-min Rain = 0
KLE1 111204Z 08004KT 22/20 A3008 RMK A01 T02240199  RH  086%=      5-min Rain = 0
KLE1 111205Z 08004KT 22/20 A3008 RMK A01 T02240198  RH  085%=      5-min Rain = 0
KLE1 111206Z 08004KT 23/20 A3008 RMK A01 T02250198  RH  085%=      5-min Rain = 0
KLE1 111207Z 08003KT 23/20 A3008 RMK A01 T02250198  RH  085%=      5-min Rain = 0
KLE1 111208Z 09004KT 23/20 A3008 RMK A01 T02260199  RH  085%=      5-min Rain = 0
KLE1 111209Z 09003KT 23/20 A3008 RMK A01 T02260198  RH  084%=      5-min Rain = 0
KLE1 111210Z 10003KT 23/20 A3008 RMK A01 T02270199  RH  084%=      5-min Rain = 0
KLE1 111211Z 10003KT 23/20 A3008 RMK A01 T02270198  RH  084%=      5-min Rain = 0
KLE1 111212Z 10003KT 23/20 A3008 RMK A01 T02270198  RH  083%=      5-min Rain = 0
KLE1 111213Z 11003KT 23/20 A3008 RMK A01 T02280197  RH  083%=      5-min Rain = 0
KLE1 111214Z 11002KT 23/20 A3008 RMK A01 T02290197  RH  082%=      5-min Rain = 0
KLE1 111215Z 11003KT 23/20 A3008 RMK A01 T02300197  RH  082%=      5-min Rain = 0
KLE1 111216Z 11003KT 23/20 A3008 RMK A01 T02310197  RH  081%=      5-min Rain = 0
KLE1 111217Z 11003KT 23/20 A3008 RMK A01 T02310197  RH  081%=      5-min Rain = 0
KLE1 111218Z 11003KT 23/20 A3008 RMK A01 T02320197  RH  080%=      5-min Rain = 0
KLE1 111219Z 10003KT 23/20 A3008 RMK A01 T02330197  RH  080%=      5-min Rain = 0
KLE1 111220Z 10003KT 23/20 A3008 RMK A01 T02330197  RH  080%=      5-min Rain = 0
KLE1 111221Z 10003KT 23/20 A3008 RMK A01 T02330196  RH  080%=      5-min Rain = 0
KLE1 111222Z 10003KT 23/20 A3008 RMK A01 T02340197  RH  080%=      5-min Rain = 0
KLE1 111223Z 10003KT 23/20 A3008 RMK A01 T02330198  RH  080%=      5-min Rain = 0
KLE1 111224Z 10003KT 23/20 A3008 RMK A01 T02340197  RH  080%=      5-min Rain = 0
KLE1 111225Z 10003KT 23/20 A3008 RMK A01 T02340198  RH  080%=      5-min Rain = 0
KLE1 111226Z 10004KT 23/20 A3008 RMK A01 T02340198  RH  080%=      5-min Rain = 0
KLE1 111227Z 09003KT 23/20 A3008 RMK A01 T02340198  RH  081%=      5-min Rain = 0
KLE1 111228Z 09004KT 23/20 A3008 RMK A01 T02340198  RH  081%=      5-min Rain = 0
KLE1 111229Z 09004KT 23/20 A3008 RMK A01 T02340198  RH  081%=      5-min Rain = 0
KLE1 111230Z 10004KT 23/20 A3008 RMK A01 T02340199  RH  081%=      5-min Rain = 0
KLE1 111231Z 10004KT 23/20 A3008 RMK A01 T02340199  RH  081%=      5-min Rain = 0
KLE1 111232Z 10004KT 23/20 A3008 RMK A01 T02340199  RH  081%=      5-min Rain = 0
KLE1 111233Z 10003KT 23/20 A3008 RMK A01 T02340199  RH  081%=      5-min Rain = 0
KLE1 111234Z 10003KT 23/20 A3008 RMK A01 T02340199  RH  081%=      5-min Rain = 0
KLE1 111235Z 10003KT 23/20 A3008 RMK A01 T02340199  RH  081%=      5-min Rain = 0
KLE1 111236Z 10003KT 23/20 A3009 RMK A01 T02340199  RH  081%=      5-min Rain = 0
KLE1 111237Z 11003KT 23/20 A3009 RMK A01 T02340200  RH  081%=      5-min Rain = 0
KLE1 111238Z 11003KT 23/20 A3009 RMK A01 T02340201  RH  081%=      5-min Rain = 0
KLE1 111239Z 10003KT 24/20 A3009 RMK A01 T02350201  RH  082%=      5-min Rain = 0
KLE1 111240Z 11003KT 23/20 A3009 RMK A01 T02340201  RH  082%=      5-min Rain = 0
KLE1 111241Z 11002KT 23/20 A3009 RMK A01 T02340201  RH  081%=      5-min Rain = 0
KLE1 111242Z 12002KT 23/20 A3009 RMK A01 T02340201  RH  082%=      5-min Rain = 0
KLE1 111243Z 12003KT 24/20 A3009 RMK A01 T02350202  RH  082%=      5-min Rain = 0
KLE1 111244Z 12003KT 23/20 A3009 RMK A01 T02340201  RH  081%=      5-min Rain = 0
KLE1 111245Z 13003KT 23/20 A3009 RMK A01 T02340201  RH  081%=      5-min Rain = 0
KLE1 111246Z 13002KT 23/20 A3009 RMK A01 T02340201  RH  082%=      5-min Rain = 0
KLE1 111247Z 13002KT 24/20 A3009 RMK A01 T02350202  RH  082%=      5-min Rain = 0
KLE1 111248Z 13002KT 24/20 A3009 RMK A01 T02350201  RH  082%=      5-min Rain = 0
KLE1 111249Z 12002KT 23/20 A3009 RMK A01 T02340201  RH  082%=      5-min Rain = 0
KLE1 111250Z 12002KT 23/20 A3009 RMK A01 T02340201  RH  082%=      5-min Rain = 0
KLE1 111251Z 12003KT 23/20 A3009 RMK A01 T02340201  RH  081%=      5-min Rain = 0
KLE1 111252Z 12003KT 23/20 A3009 RMK A01 T02340200  RH  081%=      5-min Rain = 0
KLE1 111253Z 12003KT 24/20 A3009 RMK A01 T02350200  RH  081%=      5-min Rain = 0
KLE1 111254Z 12002KT 24/20 A3009 RMK A01 T02350200  RH  081%=      5-min Rain = 0
KLE1 111255Z 12002KT 24/20 A3009 RMK A01 T02350199  RH  080%=      5-min Rain = 0
KLE1 111256Z 12003KT 24/20 A3009 RMK A01 T02350200  RH  080%=      5-min Rain = 0
KLE1 111257Z 12003KT 24/20 A3009 RMK A01 T02360199  RH  080%=      5-min Rain = 0
KLE1 111258Z 13002KT 24/20 A3009 RMK A01 T02360200  RH  080%=      5-min Rain = 0
KLE1 111259Z 13002KT 24/20 A3009 RMK A01 T02370200  RH  080%=      5-min Rain = 0
KLE1 111300Z 13002KT 24/20 A3009 RMK A01 T02370200  RH  080%=      5-min Rain = 0
KLE1 111301Z 14002KT 24/20 A3009 RMK A01 T02370200  RH  080%=      5-min Rain = 0
KLE1 111302Z 14002KT 24/20 A3009 RMK A01 T02370201  RH  080%=      5-min Rain = 0
KLE1 111303Z 13002KT 24/20 A3009 RMK A01 T02380201  RH  080%=      5-min Rain = 0
KLE1 111304Z 13002KT 24/20 A3009 RMK A01 T02380200  RH  079%=      5-min Rain = 0
KLE1 111305Z 14001KT 24/20 A3009 RMK A01 T02380200  RH  079%=      5-min Rain = 0
KLE1 111306Z 14001KT 24/20 A3009 RMK A01 T02380201  RH  080%=      5-min Rain = 0
KLE1 111307Z 14000KT 24/20 A3009 RMK A01 T02390202  RH  080%=      5-min Rain = 0
KLE1 111308Z 15001KT 24/20 A3009 RMK A01 T02400202  RH  079%=      5-min Rain = 0
KLE1 111309Z 14001KT 24/20 A3009 RMK A01 T02390200  RH  079%=      5-min Rain = 0
KLE1 111310Z 14001KT 24/20 A3009 RMK A01 T02400200  RH  078%=      5-min Rain = 0
KLE1 111311Z 13001KT 24/20 A3009 RMK A01 T02400200  RH  078%=      5-min Rain = 0
KLE1 111312Z 13001KT 24/20 A3009 RMK A01 T02400200  RH  078%=      5-min Rain = 0
KLE1 111313Z 12001KT 24/20 A3009 RMK A01 T02400200  RH  078%=      5-min Rain = 0
KLE1 111314Z 11001KT 24/20 A3009 RMK A01 T02400199  RH  078%=      5-min Rain = 0
KLE1 111315Z 13002KT 24/20 A3009 RMK A01 T02400200  RH  078%=      5-min Rain = 0
KLE1 111316Z 13002KT 24/20 A3009 RMK A01 T02410200  RH  078%=      5-min Rain = 0
KLE1 111317Z 13002KT 24/20 A3009 RMK A01 T02400199  RH  078%=      5-min Rain = 0
KLE1 111318Z 13001KT 24/20 A3009 RMK A01 T02400200  RH  078%=      5-min Rain = 0
KLE1 111319Z 11002KT 24/20 A3009 RMK A01 T02410200  RH  078%=      5-min Rain = 0
KLE1 111320Z 12002KT 24/20 A3009 RMK A01 T02400200  RH  078%=      5-min Rain = 0
KLE1 111321Z 12002KT 24/20 A3009 RMK A01 T02410199  RH  077%=      5-min Rain = 0
KLE1 111322Z 12002KT 24/20 A3009 RMK A01 T02410200  RH  078%=      5-min Rain = 0
KLE1 111323Z 12002KT 24/20 A3009 RMK A01 T02410199  RH  078%=      5-min Rain = 0
KLE1 111324Z 12002KT 24/20 A3009 RMK A01 T02410200  RH  078%=      5-min Rain = 0
KLE1 111325Z 10001KT 24/20 A3009 RMK A01 T02410200  RH  078%=      5-min Rain = 0
KLE1 111326Z 09002KT 24/20 A3009 RMK A01 T02420200  RH  078%=      5-min Rain = 0
KLE1 111327Z 10002KT 24/20 A3009 RMK A01 T02420201  RH  078%=      5-min Rain = 0
KLE1 111328Z 10002KT 24/20 A3009 RMK A01 T02420201  RH  078%=      5-min Rain = 0
KLE1 111329Z 11002KT 24/20 A3009 RMK A01 T02420201  RH  078%=      5-min Rain = 0
KLE1 111330Z 11002KT 24/20 A3009 RMK A01 T02420201  RH  078%=      5-min Rain = 0
KLE1 111331Z 11002KT 24/20 A3009 RMK A01 T02420201  RH  078%=      5-min Rain = 0
KLE1 111332Z 10002KT 24/20 A3009 RMK A01 T02420201  RH  078%=      5-min Rain = 0
KLE1 111333Z 10003KT 24/20 A301 RMK A01 T02420202  RH  078%=      5-min Rain = 0
KLE1 111334Z 10003KT 24/20 A301 RMK A01 T02430202  RH  078%=      5-min Rain = 0
KLE1 111335Z 11002KT 24/20 A301 RMK A01 T02430202  RH  078%=      5-min Rain = 0
KLE1 111336Z 11003KT 24/20 A301 RMK A01 T02440202  RH  077%=      5-min Rain = 0
KLE1 111337Z 11003KT 24/20 A301 RMK A01 T02440201  RH  077%=      5-min Rain = 0
KLE1 111338Z 10003KT 25/20 A301 RMK A01 T02460202  RH  077%=      5-min Rain = 0
KLE1 111339Z 11003KT 25/20 A301 RMK A01 T02470202  RH  076%=      5-min Rain = 0
KLE1 111340Z 11004KT 25/20 A301 RMK A01 T02490202  RH  075%=      5-min Rain = 0
KLE1 111341Z 11004KT 25/20 A301 RMK A01 T02510203  RH  075%=      5-min Rain = 0
KLE1 111342Z 12004KT 25/20 A301 RMK A01 T02520201  RH  074%=      5-min Rain = 0
KLE1 111343Z 13004KT 25/20 A301 RMK A01 T02530202  RH  073%=      5-min Rain = 0
KLE1 111344Z 13005KT 25/20 A301 RMK A01 T02540200  RH  072%=      5-min Rain = 0
KLE1 111345Z 13005KT 25/20 A301 RMK A01 T02540202  RH  073%=      5-min Rain = 0
KLE1 111346Z 14005KT 25/20 A301 RMK A01 T02540202  RH  073%=      5-min Rain = 0
KLE1 111347Z 13004KT 26/20 A301 RMK A01 T02550204  RH  074%=      5-min Rain = 0
KLE1 111348Z 13005KT 26/20 A301 RMK A01 T02560202  RH  072%=      5-min Rain = 0
KLE1 111349Z 12004KT 26/20 A301 RMK A01 T02560202  RH  072%=      5-min Rain = 0
KLE1 111350Z 12005KT 26/20 A301 RMK A01 T02570202  RH  071%=      5-min Rain = 0
KLE1 111351Z 13005KT 26/20 A301 RMK A01 T02580199  RH  070%=      5-min Rain = 0
KLE1 111352Z 14005KT 26/20 A301 RMK A01 T02590197  RH  069%=      5-min Rain = 0
KLE1 111353Z 14005KT 26/20 A301 RMK A01 T02580197  RH  069%=      5-min Rain = 0
KLE1 111354Z 14005KT 26/20 A301 RMK A01 T02580198  RH  070%=      5-min Rain = 0
KLE1 111355Z 14005KT 26/20 A301 RMK A01 T02590196  RH  068%=      5-min Rain = 0
KLE1 111356Z 12005KT 26/20 A301 RMK A01 T02590199  RH  070%=      5-min Rain = 0
KLE1 111357Z 12006KT 26/20 A301 RMK A01 T02590200  RH  070%=      5-min Rain = 0
KLE1 111358Z 13006KT 26/20 A301 RMK A01 T02590198  RH  069%=      5-min Rain = 0
KLE1 111359Z 13005KT 26/20 A301 RMK A01 T02570198  RH  070%=      5-min Rain = 0
KLE1 111400Z 13005KT 26/20 A301 RMK A01 T02560198  RH  070%=      5-min Rain = 0
KLE1 111401Z 10004KT 26/20 A3011 RMK A01 T02550197  RH  070%=      5-min Rain = 0
KLE1 111402Z 11005KT 26/20 A3011 RMK A01 T02550196  RH  070%=      5-min Rain = 0
KLE1 111403Z 11005KT 26/20 A3011 RMK A01 T02550196  RH  070%=      5-min Rain = 0
KLE1 111404Z 11005KT 26/20 A3011 RMK A01 T02550196  RH  070%=      5-min Rain = 0
KLE1 111405Z 10005KT 26/20 A3011 RMK A01 T02550197  RH  070%=      5-min Rain = 0
KLE1 111406Z 11004KT 26/20 A3011 RMK A01 T02550198  RH  071%=      5-min Rain = 0
KLE1 111407Z 10004KT 26/20 A3011 RMK A01 T02550198  RH  071%=      5-min Rain = 0
KLE1 111408Z 10005KT 26/20 A3011 RMK A01 T02560198  RH  070%=      5-min Rain = 0
KLE1 111409Z 09004KT 26/20 A3011 RMK A01 T02580197  RH  069%=      5-min Rain = 0
KLE1 111410Z 09004KT 26/20 A3011 RMK A01 T02590195  RH  068%=      5-min Rain = 0
KLE1 111411Z 10004KT 26/20 A3011 RMK A01 T02600198  RH  069%=      5-min Rain = 0
KLE1 111412Z 11004KT 26/20 A3011 RMK A01 T02610197  RH  068%=      5-min Rain = 0
KLE1 111413Z 12003KT 26/20 A3011 RMK A01 T02610197  RH  068%=      5-min Rain = 0
KLE1 111414Z 12004KT 26/20 A3011 RMK A01 T02620198  RH  068%=      5-min Rain = 0
KLE1 111415Z 11005KT 26/20 A3011 RMK A01 T02620198  RH  068%=      5-min Rain = 0
KLE1 111416Z 11006KT 26/20 A3011 RMK A01 T02630197  RH  067%=      5-min Rain = 0
KLE1 111417Z 11005KT 26/20 A3011 RMK A01 T02620196  RH  067%=      5-min Rain = 0
KLE1 111418Z 11005KT 26/20 A3011 RMK A01 T02630197  RH  067%=      5-min Rain = 0
KLE1 111419Z 12004KT 26/20 A3011 RMK A01 T02640197  RH  067%=      5-min Rain = 0
KLE1 111420Z 12004KT 27/20 A3011 RMK A01 T02650198  RH  066%=      5-min Rain = 0
KLE1 111421Z 10004KT 27/20 A3011 RMK A01 T02670200  RH  067%=      5-min Rain = 0
KLE1 111422Z 10005KT 27/20 A3011 RMK A01 T02690199  RH  066%=      5-min Rain = 0
KLE1 111423Z 11004KT 27/20 A3011 RMK A01 T02710200  RH  065%=      5-min Rain = 0
KLE1 111424Z 10004KT 27/20 A3011 RMK A01 T02730200  RH  064%=      5-min Rain = 0
KLE1 111425Z 12003KT 27/20 A3011 RMK A01 T02730199  RH  064%=      5-min Rain = 0
KLE1 111426Z 11005KT 27/20 A3011 RMK A01 T02740197  RH  063%=      5-min Rain = 0
KLE1 111427Z 11005KT 27/20 A3011 RMK A01 T02740197  RH  063%=      5-min Rain = 0
KLE1 111428Z 12004KT 27/20 A3011 RMK A01 T02730197  RH  063%=      5-min Rain = 0
KLE1 111429Z 11005KT 27/20 A3011 RMK A01 T02730199  RH  064%=      5-min Rain = 0
KLE1 111430Z 10005KT 27/20 A3011 RMK A01 T02740200  RH  064%=      5-min Rain = 0
KLE1 111431Z 10004KT 28/20 A3011 RMK A01 T02760201  RH  064%=      5-min Rain = 0
KLE1 111432Z 12005KT 28/20 A3011 RMK A01 T02790203  RH  063%=      5-min Rain = 0
KLE1 111433Z 11006KT 28/20 A3011 RMK A01 T02800201  RH  062%=      5-min Rain = 0
KLE1 111434Z 11006KT 28/20 A3011 RMK A01 T02790200  RH  062%=      5-min Rain = 0
KLE1 111435Z 10004KT 28/20 A3011 RMK A01 T02790202  RH  063%=      5-min Rain = 0
KLE1 111436Z 11006KT 28/20 A3011 RMK A01 T02800201  RH  062%=      5-min Rain = 0
KLE1 111437Z 11005KT 28/20 A3011 RMK A01 T02800198  RH  061%=      5-min Rain = 0
KLE1 111438Z 10005KT 28/20 A3011 RMK A01 T02800201  RH  062%=      5-min Rain = 0
KLE1 111439Z 12005KT 28/20 A3011 RMK A01 T02810202  RH  062%=      5-min Rain = 0
KLE1 111440Z 10006KT 29/20 A3011 RMK A01 T02850201  RH  060%=      5-min Rain = 0
KLE1 111441Z 11006KT 29/20 A3011 RMK A01 T02860196  RH  058%=      5-min Rain = 0
KLE1 111442Z 12006KT 29/20 A3011 RMK A01 T02850198  RH  059%=      5-min Rain = 0
KLE1 111443Z 10007KT 28/20 A3011 RMK A01 T02830196  RH  059%=      5-min Rain = 0
KLE1 111444Z 10007KT 28/20 A3011 RMK A01 T02820198  RH  061%=      5-min Rain = 0
KLE1 111445Z 10004KT 28/20 A3011 RMK A01 T02810198  RH  061%=      5-min Rain = 0
KLE1 111446Z 08006KT 28/20 A3011 RMK A01 T02830196  RH  059%=      5-min Rain = 0
KLE1 111447Z 11005KT 28/20 A3011 RMK A01 T02840195  RH  059%=      5-min Rain = 0
KLE1 111448Z 12006KT 29/20 A3011 RMK A01 T02850199  RH  060%=      5-min Rain = 0
KLE1 111449Z 11006KT 29/20 A3011 RMK A01 T02860200  RH  060%=      5-min Rain = 0
KLE1 111450Z 12006KT 29/20 A3011 RMK A01 T02860196  RH  058%=      5-min Rain = 0
KLE1 111451Z 12005KT 29/20 A3011 RMK A01 T02850196  RH  059%=      5-min Rain = 0
KLE1 111452Z 12005KT 29/19 A3011 RMK A01 T02860193  RH  057%=      5-min Rain = 0
KLE1 111453Z 12005KT 29/20 A3011 RMK A01 T02860197  RH  058%=      5-min Rain = 0
KLE1 111454Z 11005KT 29/19 A3011 RMK A01 T02870193  RH  057%=      5-min Rain = 0
KLE1 111455Z 12004KT 29/19 A3011 RMK A01 T02860191  RH  056%=      5-min Rain = 0
KLE1 111456Z 12004KT 29/19 A3011 RMK A01 T02870194  RH  057%=      5-min Rain = 0
KLE1 111457Z 12003KT 29/19 A3011 RMK A01 T02870191  RH  056%=      5-min Rain = 0
KLE1 111458Z 09004KT 29/19 A3011 RMK A01 T02880194  RH  057%=      5-min Rain = 0
KLE1 111459Z 10003KT 29/19 A3011 RMK A01 T02890193  RH  056%=      5-min Rain = 0
KLE1 111500Z 07002KT 29/20 A3011 RMK A01 T02890195  RH  057%=      5-min Rain = 0
KLE1 111501Z 10004KT 29/20 A3011 RMK A01 T02890196  RH  057%=      5-min Rain = 0
KLE1 111502Z 12004KT 29/20 A3011 RMK A01 T02890195  RH  057%=      5-min Rain = 0
KLE1 111503Z 13005KT 29/19 A3011 RMK A01 T02890189  RH  055%=      5-min Rain = 0
KLE1 111504Z 18003KT 29/19 A3011 RMK A01 T02890187  RH  054%=      5-min Rain = 0
KLE1 111505Z 16001KT 29/19 A3011 RMK A01 T02900186  RH  054%=      5-min Rain = 0
KLE1 111506Z 06001KT 29/19 A3011 RMK A01 T02900187  RH  054%=      5-min Rain = 0
KLE1 111507Z 12001KT 29/19 A3011 RMK A01 T02920185  RH  053%=      5-min Rain = 0
KLE1 111508Z 10001KT 29/19 A3011 RMK A01 T02930185  RH  052%=      5-min Rain = 0
KLE1 111509Z 11002KT 29/19 A3011 RMK A01 T02940188  RH  053%=      5-min Rain = 0
KLE1 111510Z 12003KT 30/19 A3011 RMK A01 T02960187  RH  052%=      5-min Rain = 0
KLE1 111511Z 13003KT 30/19 A301 RMK A01 T02950189  RH  053%=      5-min Rain = 0
KLE1 111512Z 12004KT 30/19 A301 RMK A01 T02960187  RH  052%=      5-min Rain = 0
KLE1 111513Z 08001KT 30/19 A301 RMK A01 T02960185  RH  051%=      5-min Rain = 0
KLE1 111514Z 02001KT 30/19 A301 RMK A01 T02960185  RH  051%=      5-min Rain = 0
KLE1 111515Z 15002KT 30/18 A301 RMK A01 T02970184  RH  051%=      5-min Rain = 0
KLE1 111516Z 17003KT 30/19 A301 RMK A01 T02980186  RH  051%=      5-min Rain = 0
KLE1 111517Z 18003KT 30/18 A301 RMK A01 T02990184  RH  050%=      5-min Rain = 0
KLE1 111518Z 19002KT 30/19 A301 RMK A01 T02990185  RH  050%=      5-min Rain = 0
KLE1 111519Z 16004KT 30/18 A301 RMK A01 T03000184  RH  050%=      5-min Rain = 0
KLE1 111520Z 19003KT 30/19 A301 RMK A01 T03000185  RH  050%=      5-min Rain = 0
KLE1 111521Z 17002KT 30/19 A301 RMK A01 T03020185  RH  050%=      5-min Rain = 0
KLE1 111522Z 16004KT 30/19 A301 RMK A01 T03030186  RH  050%=      5-min Rain = 0
KLE1 111523Z 18003KT 31/19 A301 RMK A01 T03050185  RH  049%=      5-min Rain = 0
KLE1 111524Z 13003KT 31/19 A301 RMK A01 T03060186  RH  049%=      5-min Rain = 0
KLE1 111525Z 12001KT 31/18 A301 RMK A01 T03060184  RH  048%=      5-min Rain = 0
KLE1 111526Z 34002KT 30/18 A301 RMK A01 T03040183  RH  048%=      5-min Rain = 0
KLE1 111527Z 25002KT 30/18 A301 RMK A01 T03030184  RH  049%=      5-min Rain = 0
KLE1 111528Z 23005KT 30/19 A301 RMK A01 T03040185  RH  049%=      5-min Rain = 0
KLE1 111529Z 17003KT 30/18 A3009 RMK A01 T03040183  RH  048%=      5-min Rain = 0
KLE1 111530Z 11002KT 31/18 A3009 RMK A01 T03050182  RH  048%=      5-min Rain = 0
KLE1 111531Z 06001KT 30/18 A3009 RMK A01 T03040184  RH  049%=      5-min Rain = 0
KLE1 111532Z 02001KT 30/19 A3009 RMK A01 T03030187  RH  050%=      5-min Rain = 0
KLE1 111533Z 07003KT 30/19 A3009 RMK A01 T03040187  RH  049%=      5-min Rain = 0
KLE1 111534Z 05002KT 30/19 A3009 RMK A01 T03040186  RH  049%=      5-min Rain = 0
KLE1 111535Z 07003KT 30/19 A3009 RMK A01 T03040188  RH  050%=      5-min Rain = 0
KLE1 111536Z 08004KT 30/19 A3009 RMK A01 T03030189  RH  051%=      5-min Rain = 0
KLE1 111537Z 10003KT 30/19 A3009 RMK A01 T03020188  RH  051%=      5-min Rain = 0
KLE1 111538Z 08004KT 30/19 A3009 RMK A01 T03000188  RH  051%=      5-min Rain = 0
KLE1 111539Z 10003KT 30/19 A3009 RMK A01 T03000188  RH  051%=      5-min Rain = 0
KLE1 111540Z 10004KT 30/19 A3009 RMK A01 T03000188  RH  051%=      5-min Rain = 0
KLE1 111541Z 09003KT 30/19 A3009 RMK A01 T03010186  RH  050%=      5-min Rain = 0
KLE1 111542Z 09003KT 30/19 A3009 RMK A01 T03010187  RH  050%=      5-min Rain = 0
KLE1 111543Z 13003KT 30/19 A3009 RMK A01 T03020188  RH  050%=      5-min Rain = 0
KLE1 111544Z 13005KT 30/19 A3009 RMK A01 T03020187  RH  050%=      5-min Rain = 0
KLE1 111545Z 13003KT 30/19 A3009 RMK A01 T03030187  RH  050%=      5-min Rain = 0
KLE1 111546Z 12004KT 31/19 A3009 RMK A01 T03050190  RH  050%=      5-min Rain = 0
KLE1 111547Z 15005KT 31/19 A3009 RMK A01 T03080188  RH  049%=      5-min Rain = 0
KLE1 111548Z 15005KT 31/18 A3009 RMK A01 T03100175  RH  045%=      5-min Rain = 0
KLE1 111549Z 15005KT 31/17 A3009 RMK A01 T03110170  RH  043%=      5-min Rain = 0
KLE1 111550Z 17005KT 31/17 A3009 RMK A01 T03100172  RH  044%=      5-min Rain = 0
KLE1 111551Z 19007KT 31/17 A3009 RMK A01 T03110172  RH  044%=      5-min Rain = 0
KLE1 111552Z 16008KT 31/17 A3009 RMK A01 T03120170  RH  043%=      5-min Rain = 0
KLE1 111553Z 15007KT 31/17 A3009 RMK A01 T03130169  RH  042%=      5-min Rain = 0
KLE1 111554Z 15009KT 31/17 A3009 RMK A01 T03130168  RH  042%=      5-min Rain = 0
KLE1 111555Z 16008KT 31/17 A3009 RMK A01 T03130167  RH  041%=      5-min Rain = 0
KLE1 111556Z 19010KT 31/17 A3009 RMK A01 T03140169  RH  042%=      5-min Rain = 0
KLE1 111557Z 20008KT 31/17 A3009 RMK A01 T03140167  RH  041%=      5-min Rain = 0
KLE1 111558Z 21008KT 31/17 A3009 RMK A01 T03130167  RH  041%=      5-min Rain = 0
KLE1 111559Z 21008KT 31/17 A3009 RMK A01 T03140170  RH  042%=      5-min Rain = 0
KLE1 111600Z 20009KT 32/17 A3009 RMK A01 T03180171  RH  041%=      5-min Rain = 0
KLE1 111601Z 21011KT 32/17 A3009 RMK A01 T03210169  RH  040%=      5-min Rain = 0
KLE1 111602Z 21008KT 32/17 A3009 RMK A01 T03210166  RH  039%=      5-min Rain = 0
KLE1 111603Z 20007KT 32/17 A3009 RMK A01 T03200167  RH  040%=      5-min Rain = 0
KLE1 111604Z 22005KT 32/17 A3009 RMK A01 T03190167  RH  040%=      5-min Rain = 0
KLE1 111605Z 23006KT 32/17 A3009 RMK A01 T03190167  RH  040%=      5-min Rain = 0
KLE1 111606Z 22005KT 32/17 A3009 RMK A01 T03200167  RH  040%=      5-min Rain = 0
KLE1 111607Z 22004KT 32/16 A3009 RMK A01 T03210163  RH  039%=      5-min Rain = 0
KLE1 111608Z 20005KT 32/17 A3009 RMK A01 T03220168  RH  040%=      5-min Rain = 0
KLE1 111609Z 22005KT 32/17 A3009 RMK A01 T03240165  RH  039%=      5-min Rain = 0
KLE1 111610Z 25010KT 32/17 A3009 RMK A01 T03230173  RH  041%=      5-min Rain = 0
KLE1 111611Z 26008KT 32/18 A3009 RMK A01 T03240177  RH  041%=      5-min Rain = 0
KLE1 111612Z 24010KT 32/18 A3009 RMK A01 T03220176  RH  042%=      5-min Rain = 0
KLE1 111613Z 25009KT 32/18 A3009 RMK A01 T03180175  RH  043%=      5-min Rain = 0
KLE1 111614Z 26007KT 32/18 A3009 RMK A01 T03150175  RH  043%=      5-min Rain = 0
KLE1 111615Z 25004KT 31/18 A3009 RMK A01 T03130176  RH  044%=      5-min Rain = 0
KLE1 111616Z 24005KT 31/18 A3009 RMK A01 T03120177  RH  044%=      5-min Rain = 0
KLE1 111617Z 27004KT 31/18 A3009 RMK A01 T03110179  RH  045%=      5-min Rain = 0
KLE1 111618Z 30006KT 31/18 A3009 RMK A01 T03110178  RH  045%=      5-min Rain = 0
KLE1 111619Z 27008KT 31/18 A3009 RMK A01 T03130179  RH  045%=      5-min Rain = 0
KLE1 111620Z 26007KT 32/17 A3009 RMK A01 T03150171  RH  042%=      5-min Rain = 0
KLE1 111621Z 26005KT 32/17 A3009 RMK A01 T03150170  RH  042%=      5-min Rain = 0
KLE1 111622Z 26006KT 32/17 A3009 RMK A01 T03150169  RH  041%=      5-min Rain = 0
KLE1 111623Z 26005KT 32/17 A3009 RMK A01 T03160169  RH  041%=      5-min Rain = 0
KLE1 111624Z 24005KT 32/17 A3009 RMK A01 T03160171  RH  042%=      5-min Rain = 0
KLE1 111625Z 21004KT 32/17 A3009 RMK A01 T03160169  RH  041%=      5-min Rain = 0
KLE1 111626Z 24003KT 31/17 A3009 RMK A01 T03140169  RH  042%=      5-min Rain = 0
KLE1 111627Z 26005KT 31/17 A3009 RMK A01 T03140169  RH  042%=      5-min Rain = 0
KLE1 111628Z 25001KT 31/17 A3009 RMK A01 T03130168  RH  042%=      5-min Rain = 0
KLE1 111629Z 28002KT 31/17 A3009 RMK A01 T03130168  RH  042%=      5-min Rain = 0
KLE1 111630Z 30003KT 31/17 A3009 RMK A01 T03130170  RH  042%=      5-min Rain = 0
KLE1 111631Z 33003KT 31/17 A3009 RMK A01 T03130169  RH  042%=      5-min Rain = 0
KLE1 111632Z 29006KT 31/17 A3009 RMK A01 T03130172  RH  043%=      5-min Rain = 0
KLE1 111633Z 29004KT 31/17 A3009 RMK A01 T03130172  RH  043%=      5-min Rain = 0
KLE1 111634Z 31006KT 31/17 A3008 RMK A01 T03130173  RH  043%=      5-min Rain = 0
KLE1 111635Z 29007KT 31/17 A3008 RMK A01 T03140174  RH  043%=      5-min Rain = 0
KLE1 111636Z 28005KT 32/17 A3008 RMK A01 T03150168  RH  042%=      5-min Rain = 0
KLE1 111637Z 27006KT 31/17 A3008 RMK A01 T03140170  RH  042%=      5-min Rain = 0
KLE1 111638Z 28004KT 31/17 A3008 RMK A01 T03140168  RH  042%=      5-min Rain = 0
KLE1 111639Z 26004KT 31/17 A3008 RMK A01 T03140168  RH  042%=      5-min Rain = 0
KLE1 111640Z 25003KT 32/17 A3008 RMK A01 T03150168  RH  041%=      5-min Rain = 0
KLE1 111641Z 25003KT 32/17 A3008 RMK A01 T03160168  RH  041%=      5-min Rain = 0
KLE1 111642Z 24002KT 32/17 A3008 RMK A01 T03160168  RH  041%=      5-min Rain = 0
KLE1 111643Z 15001KT 32/17 A3008 RMK A01 T03180169  RH  041%=      5-min Rain = 0
KLE1 111644Z 11001KT 32/17 A3008 RMK A01 T03200168  RH  040%=      5-min Rain = 0
KLE1 111645Z 10001KT 32/17 A3008 RMK A01 T03210167  RH  040%=      5-min Rain = 0
KLE1 111646Z 05001KT 32/17 A3008 RMK A01 T03220169  RH  040%=      5-min Rain = 0
KLE1 111647Z 01000KT 32/17 A3008 RMK A01 T03230170  RH  040%=      5-min Rain = 0
KLE1 111648Z 29005KT 33/17 A3008 RMK A01 T03250169  RH  039%=      5-min Rain = 0
KLE1 111649Z 29005KT 33/17 A3008 RMK A01 T03260169  RH  039%=      5-min Rain = 0
KLE1 111650Z 31006KT 33/17 A3008 RMK A01 T03260169  RH  039%=      5-min Rain = 0
KLE1 111651Z 32004KT 33/17 A3008 RMK A01 T03270171  RH  039%=      5-min Rain = 0
KLE1 111652Z 33004KT 33/17 A3008 RMK A01 T03290171  RH  039%=      5-min Rain = 0
KLE1 111653Z 30002KT 33/17 A3008 RMK A01 T03290172  RH  039%=      5-min Rain = 0
KLE1 111654Z 25004KT 33/17 A3008 RMK A01 T03300169  RH  038%=      5-min Rain = 0
KLE1 111655Z 25002KT 33/17 A3008 RMK A01 T03290168  RH  038%=      5-min Rain = 0
KLE1 111656Z 33002KT 33/17 A3008 RMK A01 T03280169  RH  039%=      5-min Rain = 0
KLE1 111657Z 26002KT 33/17 A3008 RMK A01 T03290170  RH  039%=      5-min Rain = 0
KLE1 111658Z 24002KT 33/17 A3008 RMK A01 T03310171  RH  039%=      5-min Rain = 0
KLE1 111659Z 27004KT 33/17 A3008 RMK A01 T03330170  RH  038%=      5-min Rain = 0
KLE1 111700Z 28005KT 33/17 A3008 RMK A01 T03340167  RH  037%=      5-min Rain = 0
KLE1 111701Z 28006KT 33/17 A3007 RMK A01 T03330167  RH  037%=      5-min Rain = 0
KLE1 111702Z 25006KT 33/17 A3007 RMK A01 T03330169  RH  038%=      5-min Rain = 0
KLE1 111703Z 26006KT 33/17 A3007 RMK A01 T03340168  RH  037%=      5-min Rain = 0
KLE1 111704Z 27006KT 33/17 A3007 RMK A01 T03340167  RH  037%=      5-min Rain = 0
KLE1 111705Z 26007KT 33/17 A3007 RMK A01 T03330167  RH  037%=      5-min Rain = 0
KLE1 111706Z 27006KT 33/17 A3007 RMK A01 T03340168  RH  037%=      5-min Rain = 0
KLE1 111707Z 25006KT 34/17 A3007 RMK A01 T03350168  RH  037%=      5-min Rain = 0
KLE1 111708Z 25007KT 33/17 A3007 RMK A01 T03340165  RH  036%=      5-min Rain = 0
KLE1 111709Z 23006KT 33/16 A3007 RMK A01 T03320164  RH  037%=      5-min Rain = 0
KLE1 111710Z 21004KT 33/16 A3007 RMK A01 T03290161  RH  037%=      5-min Rain = 0
KLE1 111711Z 23003KT 33/16 A3007 RMK A01 T03280161  RH  037%=      5-min Rain = 0
KLE1 111712Z 20002KT 33/16 A3007 RMK A01 T03300163  RH  037%=      5-min Rain = 0
KLE1 111713Z 19001KT 33/16 A3007 RMK A01 T03320161  RH  036%=      5-min Rain = 0
KLE1 111714Z 18004KT 33/16 A3007 RMK A01 T03340161  RH  036%=      5-min Rain = 0
KLE1 111715Z 19006KT 34/16 A3007 RMK A01 T03350159  RH  035%=      5-min Rain = 0
KLE1 111716Z 19010KT 34/15 A3007 RMK A01 T03360151  RH  033%=      5-min Rain = 0
KLE1 111717Z 19010KT 34/15 A3007 RMK A01 T03410151  RH  032%=      5-min Rain = 0
KLE1 111718Z 19012KT 35/16 A3007 RMK A01 T03460156  RH  032%=      5-min Rain = 0
KLE1 111719Z 18009KT 35/16 A3007 RMK A01 T03490155  RH  031%=      5-min Rain = 0
KLE1 111720Z 17014KT 35/16 A3007 RMK A01 T03510158  RH  032%=      5-min Rain = 0
KLE1 111721Z 18015KT 35/16 A3007 RMK A01 T03530156  RH  031%=      5-min Rain = 0
KLE1 111722Z 18015KT 35/16 A3007 RMK A01 T03520157  RH  031%=      5-min Rain = 0
KLE1 111723Z 17015KT 35/16 A3007 RMK A01 T03530157  RH  031%=      5-min Rain = 0
KLE1 111724Z 17012KT 35/15 A3007 RMK A01 T03490149  RH  030%=      5-min Rain = 0
KLE1 111725Z 18014KT 35/15 A3007 RMK A01 T03450151  RH  031%=      5-min Rain = 0
KLE1 111726Z 19011KT 35/15 A3007 RMK A01 T03450151  RH  031%=      5-min Rain = 0
KLE1 111727Z 19014KT 35/15 A3007 RMK A01 T03470153  RH  031%=      5-min Rain = 0
KLE1 111728Z 17011G17KT 35/16 A3007 RMK A01 T03470156  RH  032%=      5-min Rain = 0
KLE1 111729Z 16016KT 35/16 A3007 RMK A01 T03480158  RH  032%=      5-min Rain = 0
KLE1 111730Z 16013KT 35/16 A3007 RMK A01 T03500158  RH  032%=      5-min Rain = 0
KLE1 111731Z 16014KT 35/16 A3007 RMK A01 T03530161  RH  032%=      5-min Rain = 0
KLE1 111732Z 17014KT 36/16 A3007 RMK A01 T03560163  RH  032%=      5-min Rain = 0
KLE1 111733Z 17012KT 36/16 A3007 RMK A01 T03570158  RH  031%=      5-min Rain = 0
KLE1 111734Z 17012KT 35/16 A3007 RMK A01 T03530158  RH  031%=      5-min Rain = 0
KLE1 111735Z 17010KT 35/16 A3007 RMK A01 T03480155  RH  032%=      5-min Rain = 0
KLE1 111736Z 15009KT 35/16 A3007 RMK A01 T03460158  RH  033%=      5-min Rain = 0
KLE1 111737Z 15010KT 35/16 A3007 RMK A01 T03470158  RH  032%=      5-min Rain = 0
KLE1 111738Z 17009KT 35/16 A3007 RMK A01 T03480156  RH  032%=      5-min Rain = 0
KLE1 111739Z 16009KT 35/16 A3007 RMK A01 T03480158  RH  032%=      5-min Rain = 0
KLE1 111740Z 17008KT 35/16 A3007 RMK A01 T03480157  RH  032%=      5-min Rain = 0
KLE1 111741Z 17009KT 34/16 A3007 RMK A01 T03440156  RH  033%=      5-min Rain = 0
KLE1 111742Z 17008KT 34/16 A3007 RMK A01 T03400155  RH  033%=      5-min Rain = 0
KLE1 111743Z 19008KT 34/16 A3007 RMK A01 T03400159  RH  034%=      5-min Rain = 0
KLE1 111744Z 18008G14KT 35/16 A3007 RMK A01 T03450157  RH  033%=      5-min Rain = 0
KLE1 111745Z 16012KT 35/16 A3007 RMK A01 T03470156  RH  032%=      5-min Rain = 0
KLE1 111746Z 16015KT 35/16 A3007 RMK A01 T03500157  RH  032%=      5-min Rain = 0
KLE1 111747Z 17013KT 35/15 A3007 RMK A01 T03510154  RH  031%=      5-min Rain = 0
KLE1 111748Z 17011KT 35/16 A3007 RMK A01 T03530159  RH  032%=      5-min Rain = 0
KLE1 111749Z 17010KT 36/16 A3007 RMK A01 T03560158  RH  031%=      5-min Rain = 0
KLE1 111750Z 18009KT 36/16 A3007 RMK A01 T03550156  RH  031%=      5-min Rain = 0
KLE1 111751Z 19005G10KT 35/15 A3007 RMK A01 T03530146  RH  029%=      5-min Rain = 0
KLE1 111752Z 15004KT 35/15 A3006 RMK A01 T03480145  RH  030%=      5-min Rain = 0
KLE1 111753Z 18006KT 35/15 A3006 RMK A01 T03480152  RH  031%=      5-min Rain = 0
KLE1 111754Z 17007KT 35/15 A3006 RMK A01 T03500152  RH  031%=      5-min Rain = 0
KLE1 111755Z 16006KT 35/15 A3006 RMK A01 T03500149  RH  030%=      5-min Rain = 0
KLE1 111756Z 17006KT 35/15 A3006 RMK A01 T03500149  RH  030%=      5-min Rain = 0
KLE1 111757Z 17008G15KT 35/15 A3006 RMK A01 T03500153  RH  031%=      5-min Rain = 0
KLE1 111758Z 16009G15KT 35/15 A3006 RMK A01 T03530149  RH  030%=      5-min Rain = 0
KLE1 111759Z 14009KT 35/15 A3006 RMK A01 T03540150  RH  029%=      5-min Rain = 0
KLE1 111800Z 16014KT 35/15 A3006 RMK A01 T03540154  RH  030%=      5-min Rain = 0
KLE1 111801Z 19017KT 36/16 A3006 RMK A01 T03550158  RH  031%=      5-min Rain = 0
KLE1 111802Z 20019KT 35/16 A3006 RMK A01 T03540155  RH  030%=      5-min Rain = 0
KLE1 111803Z 20014G19KT 35/15 A3006 RMK A01 T03490152  RH  031%=      5-min Rain = 0
KLE1 111804Z 21012KT 35/15 A3006 RMK A01 T03460154  RH  032%=      5-min Rain = 0
KLE1 111805Z 20012KT 35/15 A3006 RMK A01 T03460153  RH  032%=      5-min Rain = 0
KLE1 111806Z 20012KT 35/15 A3006 RMK A01 T03450153  RH  032%=      5-min Rain = 0
KLE1 111807Z 19011KT 35/15 A3006 RMK A01 T03480154  RH  031%=      5-min Rain = 0
KLE1 111808Z 16010KT 35/15 A3006 RMK A01 T03520154  RH  031%=      5-min Rain = 0
KLE1 111809Z 18009KT 35/15 A3006 RMK A01 T03530154  RH  031%=      5-min Rain = 0
KLE1 111810Z 21009KT 35/15 A3006 RMK A01 T03530154  RH  031%=      5-min Rain = 0
KLE1 111811Z 21012KT 35/15 A3006 RMK A01 T03530151  RH  030%=      5-min Rain = 0
KLE1 111812Z 20018KT 35/15 A3005 RMK A01 T03530146  RH  029%=      5-min Rain = 0
KLE1 111813Z 18017KT 36/15 A3006 RMK A01 T03570145  RH  028%=      5-min Rain = 0
KLE1 111814Z 16017KT 36/14 A3006 RMK A01 T03590144  RH  028%=      5-min Rain = 0
KLE1 111815Z 17017KT 36/14 A3005 RMK A01 T03600142  RH  027%=      5-min Rain = 0
KLE1 111816Z 17018KT 36/14 A3006 RMK A01 T03570138  RH  027%=      5-min Rain = 0
KLE1 111817Z 17016KT 36/14 A3006 RMK A01 T03560138  RH  027%=      5-min Rain = 0
KLE1 111818Z 17017KT 35/14 A3006 RMK A01 T03540140  RH  028%=      5-min Rain = 0
KLE1 111819Z 17014KT 36/14 A3006 RMK A01 T03550140  RH  028%=      5-min Rain = 0
KLE1 111820Z 16014KT 36/14 A3006 RMK A01 T03550140  RH  028%=      5-min Rain = 0
KLE1 111821Z 15011KT 36/14 A3006 RMK A01 T03550141  RH  028%=      5-min Rain = 0
KLE1 111822Z 17012KT 36/14 A3005 RMK A01 T03570144  RH  028%=      5-min Rain = 0
KLE1 111823Z 17009KT 36/15 A3005 RMK A01 T03570145  RH  028%=      5-min Rain = 0
KLE1 111824Z 16011KT 36/15 A3005 RMK A01 T03560147  RH  029%=      5-min Rain = 0
KLE1 111825Z 15011G16KT 36/15 A3005 RMK A01 T03580148  RH  029%=      5-min Rain = 0
KLE1 111826Z 13015KT 36/15 A3005 RMK A01 T03580150  RH  029%=      5-min Rain = 0
KLE1 111827Z 12016KT 36/15 A3005 RMK A01 T03580152  RH  029%=      5-min Rain = 0
KLE1 111828Z 11011G17KT 36/15 A3005 RMK A01 T03590150  RH  029%=      5-min Rain = 0
KLE1 111829Z 13017KT 36/16 A3005 RMK A01 T03590155  RH  030%=      5-min Rain = 0
KLE1 111830Z 13016KT 36/15 A3005 RMK A01 T03600154  RH  029%=      5-min Rain = 0
KLE1 111831Z 14015KT 36/15 A3005 RMK A01 T03630153  RH  029%=      5-min Rain = 0
KLE1 111832Z 13013KT 36/15 A3005 RMK A01 T03610151  RH  029%=      5-min Rain = 0
KLE1 111833Z 15011KT 36/15 A3005 RMK A01 T03580150  RH  029%=      5-min Rain = 0
KLE1 111834Z 13008G13KT 36/15 A3005 RMK A01 T03550150  RH  029%=      5-min Rain = 0
KLE1 111835Z 13014G19KT 35/16 A3005 RMK A01 T03540155  RH  030%=      5-min Rain = 0
KLE1 111836Z 14013KT 35/15 A3004 RMK A01 T03540150  RH  030%=      5-min Rain = 0
KLE1 111837Z 14013KT 35/15 A3004 RMK A01 T03520154  RH  031%=      5-min Rain = 0
KLE1 111838Z 14012KT 36/15 A3004 RMK A01 T03550152  RH  030%=      5-min Rain = 0
KLE1 111839Z 14013KT 36/16 A3004 RMK A01 T03590156  RH  030%=      5-min Rain = 0
KLE1 111840Z 15014KT 36/15 A3004 RMK A01 T03590152  RH  029%=      5-min Rain = 0
KLE1 111841Z 15015KT 36/15 A3004 RMK A01 T03550151  RH  030%=      5-min Rain = 0
KLE1 111842Z 15015G20KT 35/15 A3004 RMK A01 T03500148  RH  030%=      5-min Rain = 0
KLE1 111843Z 15013KT 35/15 A3005 RMK A01 T03460151  RH  031%=      5-min Rain = 0
KLE1 111844Z 16018KT 35/15 A3004 RMK A01 T03490147  RH  030%=      5-min Rain = 0
KLE1 111845Z 16017KT 35/14 A3004 RMK A01 T03530143  RH  028%=      5-min Rain = 0
KLE1 111846Z 16017KT 36/14 A3004 RMK A01 T03560141  RH  028%=      5-min Rain = 0
KLE1 111847Z 16016KT 36/14 A3004 RMK A01 T03600142  RH  027%=      5-min Rain = 0
KLE1 111848Z 15012KT 36/14 A3004 RMK A01 T03600144  RH  028%=      5-min Rain = 0
KLE1 111849Z 17015KT 36/15 A3004 RMK A01 T03640148  RH  028%=      5-min Rain = 0
KLE1 111850Z 16013KT 37/15 A3004 RMK A01 T03680148  RH  027%=      5-min Rain = 0
KLE1 111851Z 18010KT 37/14 A3004 RMK A01 T03670144  RH  027%=      5-min Rain = 0
KLE1 111852Z 18014KT 36/15 A3004 RMK A01 T03640147  RH  027%=      5-min Rain = 0
KLE1 111853Z 17017KT 37/15 A3004 RMK A01 T03670147  RH  027%=      5-min Rain = 0
KLE1 111854Z 17017G22KT 36/14 A3004 RMK A01 T03620143  RH  027%=      5-min Rain = 0
KLE1 111855Z 17011KT 36/14 A3004 RMK A01 T03550143  RH  028%=      5-min Rain = 0
KLE1 111856Z 17012KT 35/14 A3004 RMK A01 T03530144  RH  029%=      5-min Rain = 0
KLE1 111857Z 15012KT 35/15 A3004 RMK A01 T03500145  RH  029%=      5-min Rain = 0
KLE1 111858Z 15009KT 35/15 A3004 RMK A01 T03490147  RH  030%=      5-min Rain = 0
KLE1 111859Z 16016KT 35/15 A3004 RMK A01 T03480147  RH  030%=      5-min Rain = 0
KLE1 111900Z 16012KT 35/14 A3004 RMK A01 T03480144  RH  029%=      5-min Rain = 0
KLE1 111901Z 16008KT 35/15 A3004 RMK A01 T03500146  RH  030%=      5-min Rain = 0
KLE1 111902Z 17011G18KT 35/15 A3004 RMK A01 T03540148  RH  029%=      5-min Rain = 0
KLE1 111903Z 16017KT 36/14 A3003 RMK A01 T03600141  RH  027%=      5-min Rain = 0
KLE1 111904Z 17020G25KT 36/14 A3003 RMK A01 T03640143  RH  027%=      5-min Rain = 0
KLE1 111905Z 16022KT 37/14 A3003 RMK A01 T03670143  RH  026%=      5-min Rain = 0
KLE1 111906Z 16017G22KT 37/14 A3003 RMK A01 T03680144  RH  026%=      5-min Rain = 0
KLE1 111907Z 17017KT 37/14 A3003 RMK A01 T03690143  RH  026%=      5-min Rain = 0
KLE1 111908Z 17017KT 37/14 A3003 RMK A01 T03700142  RH  026%=      5-min Rain = 0
KLE1 111909Z 16014KT 37/14 A3003 RMK A01 T03690143  RH  026%=      5-min Rain = 0
KLE1 111910Z 17016KT 36/14 A3003 RMK A01 T03640137  RH  026%=      5-min Rain = 0
KLE1 111911Z 17013KT 36/14 A3003 RMK A01 T03570135  RH  026%=      5-min Rain = 0
KLE1 111912Z 16010KT 36/14 A3003 RMK A01 T03550137  RH  027%=      5-min Rain = 0
KLE1 111913Z 17011KT 35/14 A3003 RMK A01 T03530139  RH  028%=      5-min Rain = 0
KLE1 111914Z 14012KT 35/14 A3003 RMK A01 T03500138  RH  028%=      5-min Rain = 0
KLE1 111915Z 13013KT 35/14 A3003 RMK A01 T03490137  RH  028%=      5-min Rain = 0
KLE1 111916Z 15013KT 35/13 A3003 RMK A01 T03480134  RH  028%=      5-min Rain = 0
KLE1 111917Z 14014G21KT 35/14 A3003 RMK A01 T03480136  RH  028%=      5-min Rain = 0
KLE1 111918Z 15017KT 35/14 A3003 RMK A01 T03490137  RH  028%=      5-min Rain = 0
KLE1 111919Z 15014KT 35/14 A3003 RMK A01 T03490137  RH  028%=      5-min Rain = 0
KLE1 111920Z 15018KT 35/14 A3003 RMK A01 T03500139  RH  028%=      5-min Rain = 0
KLE1 111921Z 16018KT 36/14 A3003 RMK A01 T03570142  RH  028%=      5-min Rain = 0
KLE1 111922Z 17017KT 36/15 A3003 RMK A01 T03630145  RH  027%=      5-min Rain = 0
KLE1 111923Z 18017KT 37/15 A3003 RMK A01 T03690147  RH  027%=      5-min Rain = 0
KLE1 111924Z 17016KT 37/14 A3003 RMK A01 T03690143  RH  026%=      5-min Rain = 0
KLE1 111925Z 18016KT 37/14 A3003 RMK A01 T03670143  RH  026%=      5-min Rain = 0
KLE1 111926Z 18009KT 37/14 A3003 RMK A01 T03660143  RH  027%=      5-min Rain = 0
KLE1 111927Z 19009KT 37/15 A3003 RMK A01 T03660146  RH  027%=      5-min Rain = 0
KLE1 111928Z 18013KT 37/15 A3002 RMK A01 T03690146  RH  027%=      5-min Rain = 0
KLE1 111929Z 17016KT 37/15 A3002 RMK A01 T03710146  RH  026%=      5-min Rain = 0
KLE1 111930Z 17015KT 37/15 A3002 RMK A01 T03730147  RH  026%=      5-min Rain = 0
KLE1 111931Z 16016KT 38/15 A3003 RMK A01 T03760145  RH  026%=      5-min Rain = 0
KLE1 111932Z 15014KT 38/15 A3003 RMK A01 T03750145  RH  026%=      5-min Rain = 0
KLE1 111933Z 14013G19KT 37/15 A3003 RMK A01 T03730146  RH  026%=      5-min Rain = 0
KLE1 111934Z 14016KT 37/15 A3002 RMK A01 T03710145  RH  026%=      5-min Rain = 0
KLE1 111935Z 16018KT 37/14 A3002 RMK A01 T03680142  RH  026%=      5-min Rain = 0
KLE1 111936Z 16022KT 36/14 A3002 RMK A01 T03630139  RH  026%=      5-min Rain = 0
KLE1 111937Z 16018KT 36/14 A3002 RMK A01 T03580138  RH  027%=      5-min Rain = 0
KLE1 111938Z 17014KT 36/14 A3002 RMK A01 T03560139  RH  027%=      5-min Rain = 0
KLE1 111939Z 18016KT 36/14 A3002 RMK A01 T03570142  RH  028%=      5-min Rain = 0
KLE1 111940Z 19014KT 36/14 A3003 RMK A01 T03560138  RH  027%=      5-min Rain = 0
KLE1 111941Z 19010KT 35/14 A3003 RMK A01 T03520137  RH  027%=      5-min Rain = 0
KLE1 111942Z 17012KT 35/14 A3002 RMK A01 T03500138  RH  028%=      5-min Rain = 0
KLE1 111943Z 18011KT 35/14 A3002 RMK A01 T03490140  RH  029%=      5-min Rain = 0
KLE1 111944Z 17017KT 35/14 A3002 RMK A01 T03480140  RH  029%=      5-min Rain = 0
KLE1 111945Z 17018KT 35/14 A3002 RMK A01 T03490139  RH  028%=      5-min Rain = 0
KLE1 111946Z 17015KT 35/14 A3002 RMK A01 T03480140  RH  029%=      5-min Rain = 0
KLE1 111947Z 15017KT 35/14 A3002 RMK A01 T03480139  RH  028%=      5-min Rain = 0
KLE1 111948Z 15019G26KT 35/14 A3002 RMK A01 T03480138  RH  028%=      5-min Rain = 0
KLE1 111949Z 16021KT 35/14 A3002 RMK A01 T03500139  RH  028%=      5-min Rain = 0
KLE1 111950Z 16016KT 35/14 A3002 RMK A01 T03540143  RH  028%=      5-min Rain = 0
KLE1 111951Z 16014KT 36/15 A3002 RMK A01 T03600145  RH  028%=      5-min Rain = 0
KLE1 111952Z 17011KT 36/14 A3002 RMK A01 T03610141  RH  027%=      5-min Rain = 0
KLE1 111953Z 17012KT 36/14 A3002 RMK A01 T03580142  RH  028%=      5-min Rain = 0
KLE1 111954Z 16013KT 36/14 A3002 RMK A01 T03590142  RH  027%=      5-min Rain = 0
KLE1 111955Z 15014G20KT 36/14 A3002 RMK A01 T03610142  RH  027%=      5-min Rain = 0
KLE1 111956Z 17017KT 36/14 A3002 RMK A01 T03610139  RH  027%=      5-min Rain = 0
KLE1 111957Z 17018KT 36/14 A3002 RMK A01 T03570137  RH  027%=      5-min Rain = 0
KLE1 111958Z 16017KT 36/14 A3001 RMK A01 T03550136  RH  027%=      5-min Rain = 0
KLE1 111959Z 16019KT 35/14 A3001 RMK A01 T03520136  RH  027%=      5-min Rain = 0
KLE1 112000Z 16019KT 35/14 A3001 RMK A01 T03500136  RH  028%=      5-min Rain = 0
KLE1 112001Z 16016G21KT 35/14 A3001 RMK A01 T03500137  RH  028%=      5-min Rain = 0
KLE1 112002Z 16013G18KT 35/14 A3001 RMK A01 T03540143  RH  028%=      5-min Rain = 0
KLE1 112003Z 17014KT 36/14 A3001 RMK A01 T03640142  RH  027%=      5-min Rain = 0
KLE1 112004Z 16012KT 37/14 A3001 RMK A01 T03660137  RH  025%=      5-min Rain = 0
KLE1 112005Z 15014KT 37/14 A3001 RMK A01 T03660135  RH  025%=      5-min Rain = 0
KLE1 112006Z 14012KT 37/14 A3001 RMK A01 T03670137  RH  025%=      5-min Rain = 0
KLE1 112007Z 14013KT 37/14 A3001 RMK A01 T03680136  RH  025%=      5-min Rain = 0
KLE1 112008Z 13011KT 37/14 A3001 RMK A01 T03700137  RH  025%=      5-min Rain = 0
KLE1 112009Z 16013G21KT 37/13 A3001 RMK A01 T03710134  RH  024%=      5-min Rain = 0
KLE1 112010Z 16017KT 37/14 A3001 RMK A01 T03710135  RH  024%=      5-min Rain = 0
KLE1 112011Z 16017KT 37/13 A3001 RMK A01 T03730134  RH  024%=      5-min Rain = 0
KLE1 112012Z 17018KT 37/13 A3001 RMK A01 T03740130  RH  023%=      5-min Rain = 0
KLE1 112013Z 16015KT 37/13 A3001 RMK A01 T03720131  RH  024%=      5-min Rain = 0
KLE1 112014Z 18017KT 37/14 A3001 RMK A01 T03710135  RH  025%=      5-min Rain = 0
KLE1 112015Z 19015KT 37/14 A3001 RMK A01 T03710138  RH  025%=      5-min Rain = 0
KLE1 112016Z 20014KT 37/14 A3001 RMK A01 T03720137  RH  025%=      5-min Rain = 0
KLE1 112017Z 19012KT 37/14 A3001 RMK A01 T03730139  RH  025%=      5-min Rain = 0
KLE1 112018Z 18017KT 37/14 A3001 RMK A01 T03740141  RH  025%=      5-min Rain = 0
KLE1 112019Z 17016KT 37/14 A3001 RMK A01 T03700140  RH  025%=      5-min Rain = 0
KLE1 112020Z 17021KT 37/14 A3001 RMK A01 T03650138  RH  026%=      5-min Rain = 0
KLE1 112021Z 18018KT 36/14 A3001 RMK A01 T03610137  RH  026%=      5-min Rain = 0
KLE1 112022Z 18016KT 36/14 A3001 RMK A01 T03600138  RH  027%=      5-min Rain = 0
KLE1 112023Z 17012KT 36/14 A3001 RMK A01 T03630141  RH  027%=      5-min Rain = 0
KLE1 112024Z 18012KT 37/14 A3001 RMK A01 T03680141  RH  026%=      5-min Rain = 0
KLE1 112025Z 17011KT 37/14 A3001 RMK A01 T03680140  RH  026%=      5-min Rain = 0
KLE1 112026Z 17014G22KT 37/14 A3001 RMK A01 T03680140  RH  026%=      5-min Rain = 0
KLE1 112027Z 19013KT 37/14 A3001 RMK A01 T03690140  RH  026%=      5-min Rain = 0
KLE1 112028Z 20013KT 37/14 A3001 RMK A01 T03740141  RH  025%=      5-min Rain = 0
KLE1 112029Z 19013KT 37/14 A3001 RMK A01 T03690135  RH  025%=      5-min Rain = 0
KLE1 112030Z 18015KT 36/14 A3001 RMK A01 T03620135  RH  026%=      5-min Rain = 0
KLE1 112031Z 20015KT 36/14 A3001 RMK A01 T03570135  RH  026%=      5-min Rain = 0
KLE1 112032Z 19012KT 35/14 A3001 RMK A01 T03540135  RH  027%=      5-min Rain = 0
KLE1 112033Z 19013KT 35/14 A3001 RMK A01 T03530136  RH  027%=      5-min Rain = 0
KLE1 112034Z 17012KT 35/14 A3001 RMK A01 T03530136  RH  027%=      5-min Rain = 0
KLE1 112035Z 17009KT 36/14 A3001 RMK A01 T03560139  RH  027%=      5-min Rain = 0
KLE1 112036Z 18013G18KT 36/15 A3001 RMK A01 T03640145  RH  027%=      5-min Rain = 0
KLE1 112037Z 16014KT 37/14 A30 RMK A01 T03670138  RH  026%=      5-min Rain = 0
KLE1 112038Z 16011KT 36/14 A3001 RMK A01 T03640137  RH  026%=      5-min Rain = 0
KLE1 112039Z 16009KT 36/14 A30 RMK A01 T03610138  RH  026%=      5-min Rain = 0
KLE1 112040Z 18010KT 36/14 A30 RMK A01 T03610141  RH  027%=      5-min Rain = 0
KLE1 112041Z 18012KT 36/14 A30 RMK A01 T03630143  RH  027%=      5-min Rain = 0
KLE1 112042Z 18013KT 37/14 A30 RMK A01 T03660141  RH  026%=      5-min Rain = 0
KLE1 112043Z 16011G16KT 36/14 A30 RMK A01 T03640139  RH  026%=      5-min Rain = 0
KLE1 112044Z 15013KT 36/14 A30 RMK A01 T03620140  RH  027%=      5-min Rain = 0
KLE1 112045Z 16015G20KT 36/14 A30 RMK A01 T03600139  RH  027%=      5-min Rain = 0
KLE1 112046Z 16014G20KT 36/14 A30 RMK A01 T03580137  RH  027%=      5-min Rain = 0
KLE1 112047Z 16017KT 36/13 A30 RMK A01 T03560134  RH  026%=      5-min Rain = 0
KLE1 112048Z 15014KT 36/13 A30 RMK A01 T03550133  RH  026%=      5-min Rain = 0
KLE1 112049Z 17015KT 35/14 A30 RMK A01 T03540135  RH  027%=      5-min Rain = 0
KLE1 112050Z 17014G19KT 35/14 A30 RMK A01 T03530137  RH  027%=      5-min Rain = 0
KLE1 112051Z 17017KT 35/14 A30 RMK A01 T03530138  RH  028%=      5-min Rain = 0
KLE1 112052Z 18017KT 35/14 A30 RMK A01 T03530137  RH  027%=      5-min Rain = 0
KLE1 112053Z 17016KT 35/14 A30 RMK A01 T03520137  RH  028%=      5-min Rain = 0
KLE1 112054Z 17017KT 35/14 A30 RMK A01 T03510138  RH  028%=      5-min Rain = 0
KLE1 112055Z 16014KT 35/14 A30 RMK A01 T03510139  RH  028%=      5-min Rain = 0
KLE1 112056Z 17015KT 35/14 A30 RMK A01 T03520143  RH  029%=      5-min Rain = 0
KLE1 112057Z 18015G21KT 36/14 A30 RMK A01 T03550142  RH  028%=      5-min Rain = 0
KLE1 112058Z 17012KT 36/14 A30 RMK A01 T03590143  RH  027%=      5-min Rain = 0
KLE1 112059Z 18012KT 36/14 A30 RMK A01 T03620144  RH  027%=      5-min Rain = 0
KLE1 112100Z 19015KT 36/15 A2999 RMK A01 T03640146  RH  027%=      5-min Rain = 0
KLE1 112101Z 19012KT 36/14 A30 RMK A01 T03620143  RH  027%=      5-min Rain = 0
KLE1 112102Z 18015KT 36/14 A30 RMK A01 T03600143  RH  027%=      5-min Rain = 0
KLE1 112103Z 16014G19KT 36/14 A30 RMK A01 T03570140  RH  027%=      5-min Rain = 0
KLE1 112104Z 15013KT 35/14 A2999 RMK A01 T03540139  RH  028%=      5-min Rain = 0
KLE1 112105Z 16016KT 36/14 A2999 RMK A01 T03560143  RH  028%=      5-min Rain = 0
KLE1 112106Z 17017KT 36/14 A2999 RMK A01 T03600144  RH  028%=      5-min Rain = 0
KLE1 112107Z 18017KT 36/14 A2999 RMK A01 T03610144  RH  027%=      5-min Rain = 0
KLE1 112108Z 19016KT 36/15 A2999 RMK A01 T03620147  RH  028%=      5-min Rain = 0
KLE1 112109Z 18016KT 36/14 A2999 RMK A01 T03620144  RH  027%=      5-min Rain = 0
KLE1 112110Z 19014KT 36/15 A2999 RMK A01 T03630146  RH  028%=      5-min Rain = 0
KLE1 112111Z 18013KT 37/15 A2999 RMK A01 T03650145  RH  027%=      5-min Rain = 0
KLE1 112112Z 19013KT 37/15 A2999 RMK A01 T03650146  RH  027%=      5-min Rain = 0
KLE1 112113Z 18014KT 36/14 A2999 RMK A01 T03640142  RH  027%=      5-min Rain = 0
KLE1 112114Z 18013KT 36/14 A2999 RMK A01 T03620143  RH  027%=      5-min Rain = 0
KLE1 112115Z 19011KT 36/15 A2999 RMK A01 T03620145  RH  027%=      5-min Rain = 0
KLE1 112116Z 20009KT 36/15 A2999 RMK A01 T03640145  RH  027%=      5-min Rain = 0
KLE1 112117Z 20007KT 36/15 A2999 RMK A01 T03640146  RH  027%=      5-min Rain = 0
KLE1 112118Z 17009KT 37/15 A2999 RMK A01 T03650149  RH  028%=      5-min Rain = 0
KLE1 112119Z 17013G19KT 37/15 A2999 RMK A01 T03690150  RH  027%=      5-min Rain = 0
KLE1 112120Z 15016KT 37/15 A2999 RMK A01 T03740149  RH  026%=      5-min Rain = 0
KLE1 112121Z 18016KT 37/15 A2999 RMK A01 T03740148  RH  026%=      5-min Rain = 0
KLE1 112122Z 18013KT 37/15 A2999 RMK A01 T03670147  RH  027%=      5-min Rain = 0
KLE1 112123Z 18013KT 36/15 A2999 RMK A01 T03610147  RH  028%=      5-min Rain = 0
KLE1 112124Z 18013KT 36/15 A2999 RMK A01 T03570147  RH  029%=      5-min Rain = 0
KLE1 112125Z 19012KT 36/15 A2999 RMK A01 T03560147  RH  029%=      5-min Rain = 0
KLE1 112126Z 17012KT 36/15 A2999 RMK A01 T03550146  RH  029%=      5-min Rain = 0
KLE1 112127Z 15014KT 35/15 A2999 RMK A01 T03540146  RH  029%=      5-min Rain = 0
KLE1 112128Z 15013KT 35/14 A2999 RMK A01 T03530144  RH  029%=      5-min Rain = 0
KLE1 112129Z 15018KT 35/15 A2998 RMK A01 T03520145  RH  029%=      5-min Rain = 0
KLE1 112130Z 17014KT 35/15 A2998 RMK A01 T03510145  RH  029%=      5-min Rain = 0
KLE1 112131Z 16013KT 35/15 A2998 RMK A01 T03510145  RH  029%=      5-min Rain = 0
KLE1 112132Z 16013KT 35/15 A2998 RMK A01 T03510145  RH  029%=      5-min Rain = 0
KLE1 112133Z 15010KT 35/15 A2998 RMK A01 T03510147  RH  029%=      5-min Rain = 0
KLE1 112134Z 15010KT 35/15 A2998 RMK A01 T03510146  RH  029%=      5-min Rain = 0
KLE1 112135Z 15011KT 35/15 A2998 RMK A01 T03510145  RH  029%=      5-min Rain = 0
KLE1 112136Z 16009KT 35/15 A2998 RMK A01 T03500145  RH  029%=      5-min Rain = 0
KLE1 112137Z 14014KT 35/15 A2998 RMK A01 T03500147  RH  030%=      5-min Rain = 0
KLE1 112138Z 15012KT 35/15 A2998 RMK A01 T03510145  RH  029%=      5-min Rain = 0
KLE1 112139Z 15012KT 36/15 A2998 RMK A01 T03550150  RH  029%=      5-min Rain = 0
KLE1 112140Z 15016KT 36/15 A2998 RMK A01 T03620151  RH  029%=      5-min Rain = 0
KLE1 112141Z 16017KT 36/15 A2998 RMK A01 T03620148  RH  028%=      5-min Rain = 0
KLE1 112142Z 17015KT 36/15 A2998 RMK A01 T03620149  RH  028%=      5-min Rain = 0
KLE1 112143Z 16013KT 37/15 A2998 RMK A01 T03660150  RH  028%=      5-min Rain = 0
KLE1 112144Z 18013G18KT 37/15 A2998 RMK A01 T03670150  RH  028%=      5-min Rain = 0
KLE1 112145Z 17010KT 37/15 A2998 RMK A01 T03680149  RH  027%=      5-min Rain = 0
KLE1 112146Z 17014G20KT 36/15 A2997 RMK A01 T03640148  RH  028%=      5-min Rain = 0
KLE1 112147Z 19016KT 36/15 A2997 RMK A01 T03600146  RH  028%=      5-min Rain = 0
KLE1 112148Z 19017KT 36/15 A2997 RMK A01 T03570145  RH  028%=      5-min Rain = 0
KLE1 112149Z 19013G18KT 35/15 A2997 RMK A01 T03540145  RH  029%=      5-min Rain = 0
KLE1 112150Z 19016KT 36/15 A2997 RMK A01 T03580150  RH  029%=      5-min Rain = 0
KLE1 112151Z 19017KT 36/15 A2997 RMK A01 T03630150  RH  028%=      5-min Rain = 0
KLE1 112152Z 18015KT 36/15 A2997 RMK A01 T03640148  RH  028%=      5-min Rain = 0
KLE1 112153Z 19012KT 37/15 A2997 RMK A01 T03650147  RH  028%=      5-min Rain = 0
KLE1 112154Z 18011KT 37/15 A2997 RMK A01 T03650146  RH  027%=      5-min Rain = 0
KLE1 112155Z 16010KT 37/15 A2997 RMK A01 T03650146  RH  027%=      5-min Rain = 0
KLE1 112156Z 17012KT 37/15 A2997 RMK A01 T03650147  RH  027%=      5-min Rain = 0
KLE1 112157Z 18012KT 37/15 A2997 RMK A01 T03670148  RH  027%=      5-min Rain = 0
KLE1 112158Z 19015KT 37/15 A2997 RMK A01 T03670148  RH  027%=      5-min Rain = 0
KLE1 112159Z 17014KT 36/15 A2997 RMK A01 T03630147  RH  028%=      5-min Rain = 0
KLE1 112200Z 18014KT 36/15 A2997 RMK A01 T03600146  RH  028%=      5-min Rain = 0
KLE1 112201Z 17011KT 36/15 A2997 RMK A01 T03560148  RH  029%=      5-min Rain = 0
KLE1 112202Z 16010KT 35/15 A2997 RMK A01 T03540147  RH  029%=      5-min Rain = 0
KLE1 112203Z 17009KT 35/15 A2997 RMK A01 T03530147  RH  029%=      5-min Rain = 0
KLE1 112204Z 17011KT 35/15 A2997 RMK A01 T03520148  RH  030%=      5-min Rain = 0
KLE1 112205Z 17010KT 35/15 A2997 RMK A01 T03510146  RH  029%=      5-min Rain = 0
KLE1 112206Z 17011KT 35/15 A2997 RMK A01 T03500148  RH  030%=      5-min Rain = 0
KLE1 112207Z 16014KT 35/15 A2996 RMK A01 T03500149  RH  030%=      5-min Rain = 0
KLE1 112208Z 15015KT 35/15 A2997 RMK A01 T03520149  RH  030%=      5-min Rain = 0
KLE1 112209Z 14011KT 35/15 A2996 RMK A01 T03510147  RH  030%=      5-min Rain = 0
KLE1 112210Z 14016KT 35/15 A2996 RMK A01 T03500149  RH  030%=      5-min Rain = 0
KLE1 112211Z 15017KT 35/15 A2996 RMK A01 T03490147  RH  030%=      5-min Rain = 0
KLE1 112212Z 17019KT 35/14 A2996 RMK A01 T03500143  RH  029%=      5-min Rain = 0
KLE1 112213Z 17016KT 35/14 A2996 RMK A01 T03500143  RH  029%=      5-min Rain = 0
KLE1 112214Z 17012KT 35/14 A2996 RMK A01 T03500144  RH  029%=      5-min Rain = 0
KLE1 112215Z 16013G18KT 35/15 A2996 RMK A01 T03500146  RH  030%=      5-min Rain = 0
KLE1 112216Z 16015KT 35/14 A2996 RMK A01 T03500142  RH  029%=      5-min Rain = 0
KLE1 112217Z 16012KT 35/14 A2996 RMK A01 T03490141  RH  029%=      5-min Rain = 0
KLE1 112218Z 17013KT 35/14 A2996 RMK A01 T03480142  RH  029%=      5-min Rain = 0
KLE1 112219Z 18012KT 35/14 A2996 RMK A01 T03480141  RH  029%=      5-min Rain = 0
KLE1 112220Z 17012KT 35/14 A2996 RMK A01 T03500143  RH  029%=      5-min Rain = 0
KLE1 112221Z 18011KT 35/15 A2996 RMK A01 T03540147  RH  029%=      5-min Rain = 0
KLE1 112222Z 18013KT 36/15 A2996 RMK A01 T03560148  RH  029%=      5-min Rain = 0
KLE1 112223Z 19015KT 36/15 A2996 RMK A01 T03550145  RH  029%=      5-min Rain = 0
KLE1 112224Z 18013KT 35/14 A2996 RMK A01 T03530143  RH  028%=      5-min Rain = 0
KLE1 112225Z 18013KT 35/14 A2996 RMK A01 T03520144  RH  029%=      5-min Rain = 0
KLE1 112226Z 17012KT 35/15 A2996 RMK A01 T03510145  RH  029%=      5-min Rain = 0
KLE1 112227Z 16012KT 35/14 A2996 RMK A01 T03510144  RH  029%=      5-min Rain = 0
KLE1 112228Z 18012KT 35/14 A2996 RMK A01 T03510144  RH  029%=      5-min Rain = 0
KLE1 112229Z 17012KT 35/14 A2996 RMK A01 T03510144  RH  029%=      5-min Rain = 0
KLE1 112230Z 16011KT 35/14 A2996 RMK A01 T03510141  RH  028%=      5-min Rain = 0
KLE1 112231Z 16011KT 35/14 A2996 RMK A01 T03500141  RH  028%=      5-min Rain = 0
KLE1 112232Z 15010KT 35/14 A2996 RMK A01 T03500141  RH  029%=      5-min Rain = 0
KLE1 112233Z 17013KT 35/14 A2996 RMK A01 T03500143  RH  029%=      5-min Rain = 0
KLE1 112234Z 18012KT 35/14 A2996 RMK A01 T03500140  RH  029%=      5-min Rain = 0
KLE1 112235Z 18012KT 35/14 A2996 RMK A01 T03500143  RH  029%=      5-min Rain = 0
KLE1 112236Z 18014KT 35/14 A2996 RMK A01 T03540144  RH  028%=      5-min Rain = 0
KLE1 112237Z 18013KT 36/14 A2996 RMK A01 T03600144  RH  028%=      5-min Rain = 0
KLE1 112238Z 18010KT 36/14 A2996 RMK A01 T03640141  RH  026%=      5-min Rain = 0
KLE1 112239Z 18012KT 36/14 A2996 RMK A01 T03640144  RH  027%=      5-min Rain = 0
KLE1 112240Z 18014KT 37/14 A2996 RMK A01 T03670144  RH  027%=      5-min Rain = 0
KLE1 112241Z 17015KT 37/14 A2996 RMK A01 T03670143  RH  026%=      5-min Rain = 0
KLE1 112242Z 16014KT 37/14 A2996 RMK A01 T03670144  RH  027%=      5-min Rain = 0
KLE1 112243Z 16015KT 37/14 A2996 RMK A01 T03680143  RH  026%=      5-min Rain = 0
KLE1 112244Z 15013G18KT 37/14 A2996 RMK A01 T03650140  RH  026%=      5-min Rain = 0
KLE1 112245Z 15016KT 36/14 A2996 RMK A01 T03610140  RH  027%=      5-min Rain = 0
KLE1 112246Z 16016KT 36/14 A2996 RMK A01 T03580140  RH  027%=      5-min Rain = 0
KLE1 112247Z 15014KT 36/14 A2996 RMK A01 T03570140  RH  027%=      5-min Rain = 0
KLE1 112248Z 15012KT 36/14 A2996 RMK A01 T03580141  RH  027%=      5-min Rain = 0
KLE1 112249Z 14010KT 36/14 A2996 RMK A01 T03600142  RH  027%=      5-min Rain = 0
KLE1 112250Z 15012KT 36/14 A2996 RMK A01 T03620143  RH  027%=      5-min Rain = 0
KLE1 112251Z 15016KT 36/14 A2996 RMK A01 T03620141  RH  027%=      5-min Rain = 0
KLE1 112252Z 16013KT 36/14 A2996 RMK A01 T03600140  RH  027%=      5-min Rain = 0
KLE1 112253Z 17013KT 36/14 A2996 RMK A01 T03590140  RH  027%=      5-min Rain = 0
KLE1 112254Z 17016KT 36/14 A2996 RMK A01 T03580139  RH  027%=      5-min Rain = 0
KLE1 112255Z 17015KT 36/14 A2996 RMK A01 T03570136  RH  027%=      5-min Rain = 0
KLE1 112256Z 17015KT 36/14 A2996 RMK A01 T03550136  RH  027%=      5-min Rain = 0
KLE1 112257Z 16015KT 35/14 A2996 RMK A01 T03540136  RH  027%=      5-min Rain = 0
KLE1 112258Z 16016KT 35/14 A2996 RMK A01 T03530136  RH  027%=      5-min Rain = 0
KLE1 112259Z 17016KT 35/14 A2996 RMK A01 T03530137  RH  027%=      5-min Rain = 0
KLE1 112300Z 17015KT 35/14 A2996 RMK A01 T03530138  RH  027%=      5-min Rain = 0
KLE1 112301Z 17016KT 35/14 A2996 RMK A01 T03530139  RH  028%=      5-min Rain = 0
KLE1 112302Z 17014KT 35/14 A2996 RMK A01 T03540140  RH  028%=      5-min Rain = 0
KLE1 112303Z 17014KT 35/14 A2996 RMK A01 T03540140  RH  028%=      5-min Rain = 0
KLE1 112304Z 16012KT 35/14 A2996 RMK A01 T03530140  RH  028%=      5-min Rain = 0
KLE1 112305Z 18011KT 35/14 A2996 RMK A01 T03520140  RH  028%=      5-min Rain = 0
KLE1 112306Z 18012KT 35/14 A2996 RMK A01 T03520140  RH  028%=      5-min Rain = 0
KLE1 112307Z 18011KT 35/14 A2996 RMK A01 T03510139  RH  028%=      5-min Rain = 0
KLE1 112308Z 18012KT 35/14 A2996 RMK A01 T03500141  RH  028%=      5-min Rain = 0
KLE1 112309Z 18011KT 35/14 A2996 RMK A01 T03500141  RH  029%=      5-min Rain = 0
KLE1 112310Z 18012KT 35/14 A2996 RMK A01 T03500142  RH  029%=      5-min Rain = 0
KLE1 112311Z 17013KT 35/14 A2996 RMK A01 T03520142  RH  028%=      5-min Rain = 0
KLE1 112312Z 17013KT 35/14 A2996 RMK A01 T03520142  RH  028%=      5-min Rain = 0
KLE1 112313Z 17012KT 35/14 A2996 RMK A01 T03520142  RH  028%=      5-min Rain = 0
KLE1 112314Z 16011KT 35/14 A2996 RMK A01 T03520142  RH  028%=      5-min Rain = 0
KLE1 112315Z 15014G19KT 35/14 A2996 RMK A01 T03520142  RH  028%=      5-min Rain = 0
KLE1 112316Z 16015KT 35/14 A2996 RMK A01 T03520140  RH  028%=      5-min Rain = 0
KLE1 112317Z 15014KT 35/14 A2996 RMK A01 T03510139  RH  028%=      5-min Rain = 0
KLE1 112318Z 16015KT 35/14 A2996 RMK A01 T03500140  RH  028%=      5-min Rain = 0
KLE1 112319Z 16013KT 35/14 A2996 RMK A01 T03500140  RH  028%=      5-min Rain = 0
KLE1 112320Z 16012KT 35/14 A2996 RMK A01 T03500141  RH  029%=      5-min Rain = 0
KLE1 112321Z 16011KT 35/14 A2996 RMK A01 T03500140  RH  028%=      5-min Rain = 0
KLE1 112322Z 16012KT 35/14 A2996 RMK A01 T03510141  RH  029%=      5-min Rain = 0
KLE1 112323Z 16012KT 35/14 A2996 RMK A01 T03510140  RH  028%=      5-min Rain = 0
KLE1 112324Z 15015KT 35/14 A2996 RMK A01 T03510141  RH  028%=      5-min Rain = 0
KLE1 112325Z 15015KT 35/14 A2996 RMK A01 T03510140  RH  028%=      5-min Rain = 0
KLE1 112326Z 15015KT 35/14 A2996 RMK A01 T03510141  RH  028%=      5-min Rain = 0
KLE1 112327Z 15015KT 35/14 A2996 RMK A01 T03520140  RH  028%=      5-min Rain = 0
KLE1 112328Z 16014KT 35/14 A2996 RMK A01 T03520141  RH  028%=      5-min Rain = 0
KLE1 112329Z 16014KT 35/14 A2996 RMK A01 T03520141  RH  028%=      5-min Rain = 0
KLE1 112330Z 16014KT 35/14 A2996 RMK A01 T03510141  RH  028%=      5-min Rain = 0
KLE1 112331Z 16014KT 35/14 A2996 RMK A01 T03510141  RH  028%=      5-min Rain = 0
KLE1 112332Z 17016KT 35/14 A2996 RMK A01 T03510141  RH  028%=      5-min Rain = 0
KLE1 112333Z 16016KT 35/14 A2996 RMK A01 T03510141  RH  028%=      5-min Rain = 0
KLE1 112334Z 16016KT 35/14 A2996 RMK A01 T03510140  RH  028%=      5-min Rain = 0
KLE1 112335Z 16013KT 35/14 A2996 RMK A01 T03530142  RH  028%=      5-min Rain = 0
KLE1 112336Z 16011KT 36/14 A2996 RMK A01 T03560142  RH  028%=      5-min Rain = 0
KLE1 112337Z 16012KT 36/14 A2995 RMK A01 T03570142  RH  028%=      5-min Rain = 0
KLE1 112338Z 15011KT 36/14 A2995 RMK A01 T03580143  RH  028%=      5-min Rain = 0
KLE1 112339Z 15012KT 36/14 A2995 RMK A01 T03570142  RH  028%=      5-min Rain = 0
KLE1 112340Z 16012KT 35/14 A2995 RMK A01 T03540141  RH  028%=      5-min Rain = 0
KLE1 112341Z 15010KT 35/14 A2996 RMK A01 T03520139  RH  028%=      5-min Rain = 0
KLE1 112342Z 16010KT 35/14 A2996 RMK A01 T03500140  RH  028%=      5-min Rain = 0
KLE1 112343Z 16009KT 35/14 A2996 RMK A01 T03490142  RH  029%=      5-min Rain = 0
KLE1 112344Z 17011KT 35/14 A2996 RMK A01 T03490143  RH  029%=      5-min Rain = 0
KLE1 112345Z 16009KT 35/14 A2996 RMK A01 T03490143  RH  029%=      5-min Rain = 0
KLE1 112346Z 15012KT 35/14 A2996 RMK A01 T03490142  RH  029%=      5-min Rain = 0
KLE1 112347Z 16012KT 35/14 A2996 RMK A01 T03490141  RH  029%=      5-min Rain = 0
KLE1 112348Z 15010KT 35/14 A2996 RMK A01 T03480141  RH  029%=      5-min Rain = 0
KLE1 112349Z 16007KT 35/14 A2996 RMK A01 T03480142  RH  029%=      5-min Rain = 0
KLE1 112350Z 16008KT 35/14 A2996 RMK A01 T03480142  RH  029%=      5-min Rain = 0
KLE1 112351Z 16008KT 35/14 A2996 RMK A01 T03480143  RH  029%=      5-min Rain = 0
KLE1 112352Z 17008KT 35/14 A2996 RMK A01 T03480144  RH  029%=      5-min Rain = 0
KLE1 112353Z 17010KT 35/14 A2996 RMK A01 T03480143  RH  029%=      5-min Rain = 0
KLE1 112354Z 17009KT 35/14 A2996 RMK A01 T03490140  RH  029%=      5-min Rain = 0
KLE1 112355Z 17009KT 35/14 A2996 RMK A01 T03490140  RH  029%=      5-min Rain = 0
KLE1 112356Z 18009KT 35/14 A2996 RMK A01 T03480140  RH  029%=      5-min Rain = 0
KLE1 112357Z 17009KT 35/14 A2996 RMK A01 T03490140  RH  029%=      5-min Rain = 0
KLE1 112358Z 15010KT 35/14 A2996 RMK A01 T03510141  RH  029%=      5-min Rain = 0
KLE1 112359Z 15009KT 35/14 A2996 RMK A01 T03530142  RH  028%=      5-min Rain = 0
KLE1 120000Z 15010KT 35/14 A2996 RMK A01 T03540143  RH  028%=      5-min Rain = 0
KLE1 120001Z 14010KT 35/14 A2996 RMK A01 T03540144  RH  029%=      5-min Rain = 0
KLE1 120002Z 14012KT 35/15 A2996 RMK A01 T03520145  RH  029%=      5-min Rain = 0
KLE1 120003Z 14015KT 35/14 A2996 RMK A01 T03500144  RH  029%=      5-min Rain = 0
KLE1 120004Z 14016KT 35/14 A2996 RMK A01 T03480144  RH  029%=      5-min Rain = 0
KLE1 120005Z 14016KT 35/14 A2996 RMK A01 T03480143  RH  029%=      5-min Rain = 0
KLE1 120006Z 16016KT 35/14 A2996 RMK A01 T03470142  RH  029%=      5-min Rain = 0
KLE1 120007Z 15013KT 35/14 A2996 RMK A01 T03470142  RH  029%=      5-min Rain = 0
KLE1 120008Z 15016KT 35/14 A2996 RMK A01 T03470142  RH  029%=      5-min Rain = 0
KLE1 120009Z 15014KT 35/14 A2995 RMK A01 T03470141  RH  029%=      5-min Rain = 0
KLE1 120010Z 14013KT 35/14 A2995 RMK A01 T03470143  RH  029%=      5-min Rain = 0
KLE1 120011Z 13014KT 35/14 A2995 RMK A01 T03460144  RH  030%=      5-min Rain = 0
KLE1 120012Z 13015KT 35/15 A2995 RMK A01 T03450145  RH  030%=      5-min Rain = 0
KLE1 120013Z 13015KT 34/14 A2995 RMK A01 T03430144  RH  030%=      5-min Rain = 0
KLE1 120014Z 13015KT 34/15 A2995 RMK A01 T03420145  RH  031%=      5-min Rain = 0
KLE1 120015Z 13014KT 34/15 A2995 RMK A01 T03410145  RH  031%=      5-min Rain = 0
KLE1 120016Z 14014KT 34/15 A2995 RMK A01 T03400147  RH  031%=      5-min Rain = 0
KLE1 120017Z 13014KT 34/15 A2995 RMK A01 T03400146  RH  031%=      5-min Rain = 0
KLE1 120018Z 14014KT 34/15 A2996 RMK A01 T03400147  RH  031%=      5-min Rain = 0
KLE1 120019Z 14016KT 34/14 A2996 RMK A01 T03400144  RH  031%=      5-min Rain = 0
KLE1 120020Z 14015KT 34/14 A2996 RMK A01 T03400141  RH  030%=      5-min Rain = 0
KLE1 120021Z 14012KT 34/14 A2996 RMK A01 T03410144  RH  031%=      5-min Rain = 0
KLE1 120022Z 13012KT 34/15 A2996 RMK A01 T03410146  RH  031%=      5-min Rain = 0
KLE1 120023Z 14013KT 34/15 A2996 RMK A01 T03390147  RH  032%=      5-min Rain = 0
KLE1 120024Z 13012KT 34/15 A2996 RMK A01 T03380147  RH  032%=      5-min Rain = 0
KLE1 120025Z 13015KT 34/15 A2996 RMK A01 T03380146  RH  032%=      5-min Rain = 0
KLE1 120026Z 13013KT 34/15 A2996 RMK A01 T03380145  RH  031%=      5-min Rain = 0
KLE1 120027Z 13014KT 34/15 A2996 RMK A01 T03380145  RH  031%=      5-min Rain = 0
KLE1 120028Z 13015KT 34/15 A2996 RMK A01 T03370145  RH  032%=      5-min Rain = 0
KLE1 120029Z 13015KT 34/15 A2996 RMK A01 T03370146  RH  032%=      5-min Rain = 0
KLE1 120030Z 14015KT 34/15 A2996 RMK A01 T03360145  RH  032%=      5-min Rain = 0
KLE1 120031Z 13013KT 34/14 A2996 RMK A01 T03360144  RH  032%=      5-min Rain = 0
KLE1 120032Z 13012KT 34/15 A2996 RMK A01 T03360146  RH  032%=      5-min Rain = 0
KLE1 120033Z 14013KT 34/15 A2996 RMK A01 T03360146  RH  032%=      5-min Rain = 0
KLE1 120034Z 14013KT 34/15 A2996 RMK A01 T03350146  RH  032%=      5-min Rain = 0
KLE1 120035Z 14012KT 34/15 A2996 RMK A01 T03350146  RH  032%=      5-min Rain = 0
KLE1 120036Z 14012KT 34/15 A2996 RMK A01 T03350148  RH  033%=      5-min Rain = 0
KLE1 120037Z 14011KT 33/15 A2996 RMK A01 T03340148  RH  033%=      5-min Rain = 0
KLE1 120038Z 13011KT 33/15 A2996 RMK A01 T03340149  RH  033%=      5-min Rain = 0
KLE1 120039Z 14010KT 33/15 A2996 RMK A01 T03340150  RH  033%=      5-min Rain = 0
KLE1 120040Z 14011KT 33/15 A2996 RMK A01 T03330150  RH  033%=      5-min Rain = 0
KLE1 120041Z 14011KT 33/15 A2996 RMK A01 T03330149  RH  033%=      5-min Rain = 0
KLE1 120042Z 14011KT 33/15 A2996 RMK A01 T03320150  RH  033%=      5-min Rain = 0
KLE1 120043Z 14011KT 33/15 A2996 RMK A01 T03320148  RH  033%=      5-min Rain = 0
KLE1 120044Z 14011KT 33/15 A2996 RMK A01 T03320148  RH  033%=      5-min Rain = 0
KLE1 120045Z 14011KT 33/15 A2996 RMK A01 T03320147  RH  033%=      5-min Rain = 0
KLE1 120046Z 13011KT 33/15 A2996 RMK A01 T03320149  RH  033%=      5-min Rain = 0
KLE1 120047Z 14011KT 33/15 A2996 RMK A01 T03320149  RH  033%=      5-min Rain = 0
KLE1 120048Z 13011KT 33/15 A2996 RMK A01 T03310149  RH  033%=      5-min Rain = 0
KLE1 120049Z 14010KT 33/15 A2996 RMK A01 T03320149  RH  033%=      5-min Rain = 0
KLE1 120050Z 14009KT 33/15 A2996 RMK A01 T03320150  RH  033%=      5-min Rain = 0
KLE1 120051Z 13010KT 33/15 A2996 RMK A01 T03320149  RH  033%=      5-min Rain = 0
KLE1 120052Z 13010KT 33/15 A2996 RMK A01 T03320149  RH  033%=      5-min Rain = 0
KLE1 120053Z 13010KT 33/15 A2996 RMK A01 T03310150  RH  034%=      5-min Rain = 0
KLE1 120054Z 13010KT 33/15 A2996 RMK A01 T03310151  RH  034%=      5-min Rain = 0
KLE1 120055Z 13010KT 33/15 A2996 RMK A01 T03310151  RH  034%=      5-min Rain = 0
KLE1 120056Z 13010KT 33/15 A2996 RMK A01 T03300152  RH  034%=      5-min Rain = 0
KLE1 120057Z 13009KT 33/15 A2996 RMK A01 T03290153  RH  035%=      5-min Rain = 0
KLE1 120058Z 13010KT 33/15 A2997 RMK A01 T03290152  RH  034%=      5-min Rain = 0
KLE1 120059Z 13010KT 33/15 A2997 RMK A01 T03290152  RH  035%=      5-min Rain = 0
KLE1 120100Z 13009KT 33/15 A2997 RMK A01 T03290153  RH  035%=      5-min Rain = 0
KLE1 120101Z 13009KT 33/15 A2997 RMK A01 T03280154  RH  035%=      5-min Rain = 0
KLE1 120102Z 13009KT 33/15 A2997 RMK A01 T03270154  RH  035%=      5-min Rain = 0
KLE1 120103Z 13009KT 33/15 A2997 RMK A01 T03270154  RH  035%=      5-min Rain = 0
KLE1 120104Z 13009KT 33/15 A2997 RMK A01 T03270154  RH  035%=      5-min Rain = 0
KLE1 120105Z 13009KT 33/16 A2997 RMK A01 T03260155  RH  036%=      5-min Rain = 0
KLE1 120106Z 13008KT 33/16 A2997 RMK A01 T03260155  RH  036%=      5-min Rain = 0
KLE1 120107Z 13008KT 33/16 A2997 RMK A01 T03250155  RH  036%=      5-min Rain = 0
KLE1 120108Z 13008KT 33/16 A2997 RMK A01 T03250155  RH  036%=      5-min Rain = 0
KLE1 120109Z 13007KT 32/16 A2997 RMK A01 T03240155  RH  036%=      5-min Rain = 0
KLE1 120110Z 13008KT 32/16 A2997 RMK A01 T03240156  RH  036%=      5-min Rain = 0
KLE1 120111Z 13007KT 32/16 A2997 RMK A01 T03240157  RH  037%=      5-min Rain = 0
KLE1 120112Z 13007KT 32/16 A2997 RMK A01 T03230156  RH  037%=      5-min Rain = 0
KLE1 120113Z 13007KT 32/16 A2997 RMK A01 T03220157  RH  037%=      5-min Rain = 0
KLE1 120114Z 13007KT 32/16 A2997 RMK A01 T03220157  RH  037%=      5-min Rain = 0
KLE1 120115Z 13007KT 32/16 A2997 RMK A01 T03210157  RH  037%=      5-min Rain = 0
KLE1 120116Z 13007KT 32/16 A2997 RMK A01 T03210156  RH  037%=      5-min Rain = 0
KLE1 120117Z 13007KT 32/16 A2997 RMK A01 T03210155  RH  037%=      5-min Rain = 0
KLE1 120118Z 13007KT 32/16 A2997 RMK A01 T03210156  RH  037%=      5-min Rain = 0
KLE1 120119Z 13007KT 32/16 A2997 RMK A01 T03210156  RH  037%=      5-min Rain = 0
KLE1 120120Z 13007KT 32/16 A2997 RMK A01 T03210157  RH  037%=      5-min Rain = 0
KLE1 120121Z 13007KT 32/16 A2997 RMK A01 T03200157  RH  037%=      5-min Rain = 0
KLE1 120122Z 13007KT 32/16 A2997 RMK A01 T03200158  RH  038%=      5-min Rain = 0
KLE1 120123Z 13007KT 32/16 A2997 RMK A01 T03190157  RH  038%=      5-min Rain = 0
KLE1 120124Z 13008KT 32/16 A2997 RMK A01 T03180157  RH  038%=      5-min Rain = 0
KLE1 120125Z 13008KT 32/16 A2997 RMK A01 T03190157  RH  038%=      5-min Rain = 0
KLE1 120126Z 13008KT 32/16 A2997 RMK A01 T03180158  RH  038%=      5-min Rain = 0
KLE1 120127Z 13008KT 32/16 A2997 RMK A01 T03180158  RH  038%=      5-min Rain = 0
KLE1 120128Z 13008KT 32/16 A2997 RMK A01 T03180157  RH  038%=      5-min Rain = 0
KLE1 120129Z 13007KT 32/16 A2997 RMK A01 T03170158  RH  038%=      5-min Rain = 0
KLE1 120130Z 13008KT 32/16 A2997 RMK A01 T03170159  RH  039%=      5-min Rain = 0
KLE1 120131Z 13008KT 32/16 A2997 RMK A01 T03160158  RH  039%=      5-min Rain = 0
KLE1 120132Z 13008KT 32/16 A2997 RMK A01 T03150159  RH  039%=      5-min Rain = 0
KLE1 120133Z 13008KT 32/16 A2997 RMK A01 T03150159  RH  039%=      5-min Rain = 0
KLE1 120134Z 13008KT 31/16 A2997 RMK A01 T03140158  RH  039%=      5-min Rain = 0
KLE1 120135Z 13008KT 32/16 A2997 RMK A01 T03150158  RH  039%=      5-min Rain = 0
KLE1 120136Z 13008KT 31/16 A2997 RMK A01 T03140158  RH  039%=      5-min Rain = 0
KLE1 120137Z 13008KT 31/16 A2997 RMK A01 T03140158  RH  039%=      5-min Rain = 0
KLE1 120138Z 13008KT 31/16 A2997 RMK A01 T03140158  RH  039%=      5-min Rain = 0
KLE1 120139Z 13008KT 31/16 A2997 RMK A01 T03130157  RH  039%=      5-min Rain = 0
KLE1 120140Z 13007KT 31/16 A2997 RMK A01 T03130158  RH  039%=      5-min Rain = 0
KLE1 120141Z 13008KT 31/16 A2998 RMK A01 T03130159  RH  039%=      5-min Rain = 0
KLE1 120142Z 13008KT 31/16 A2998 RMK A01 T03120159  RH  040%=      5-min Rain = 0
KLE1 120143Z 13008KT 31/16 A2998 RMK A01 T03110159  RH  040%=      5-min Rain = 0
KLE1 120144Z 13008KT 31/16 A2998 RMK A01 T03110159  RH  040%=      5-min Rain = 0
KLE1 120145Z 13008KT 31/16 A2998 RMK A01 T03100159  RH  040%=      5-min Rain = 0
KLE1 120146Z 13008KT 31/16 A2998 RMK A01 T03100160  RH  040%=      5-min Rain = 0
KLE1 120147Z 13008KT 31/16 A2998 RMK A01 T03100159  RH  040%=      5-min Rain = 0
KLE1 120148Z 13007KT 31/16 A2998 RMK A01 T03100160  RH  040%=      5-min Rain = 0
KLE1 120149Z 13008KT 31/16 A2998 RMK A01 T03090159  RH  040%=      5-min Rain = 0
KLE1 120150Z 13008KT 31/16 A2998 RMK A01 T03090159  RH  040%=      5-min Rain = 0
KLE1 120151Z 13008KT 31/16 A2998 RMK A01 T03090159  RH  041%=      5-min Rain = 0
KLE1 120152Z 13008KT 31/16 A2998 RMK A01 T03080160  RH  041%=      5-min Rain = 0
KLE1 120153Z 13007KT 31/16 A2998 RMK A01 T03080160  RH  041%=      5-min Rain = 0
KLE1 120154Z 13007KT 31/16 A2998 RMK A01 T03070160  RH  041%=      5-min Rain = 0
KLE1 120155Z 13007KT 31/16 A2998 RMK A01 T03070160  RH  041%=      5-min Rain = 0
KLE1 120156Z 13007KT 31/16 A2998 RMK A01 T03070160  RH  041%=      5-min Rain = 0
KLE1 120157Z 13007KT 31/16 A2998 RMK A01 T03070160  RH  041%=      5-min Rain = 0
KLE1 120158Z 13008KT 31/16 A2998 RMK A01 T03060161  RH  042%=      5-min Rain = 0
KLE1 120159Z 12008KT 31/16 A2998 RMK A01 T03060161  RH  042%=      5-min Rain = 0
KLE1 120200Z 13008KT 31/16 A2998 RMK A01 T03050161  RH  042%=      5-min Rain = 0
KLE1 120201Z 13008KT 31/16 A2998 RMK A01 T03050161  RH  042%=      5-min Rain = 0
KLE1 120202Z 13008KT 31/16 A2998 RMK A01 T03050160  RH  042%=      5-min Rain = 0
KLE1 120203Z 13008KT 30/16 A2998 RMK A01 T03040160  RH  042%=      5-min Rain = 0
KLE1 120204Z 13009KT 30/16 A2998 RMK A01 T03040160  RH  042%=      5-min Rain = 0
KLE1 120205Z 13009KT 30/16 A2998 RMK A01 T03040160  RH  042%=      5-min Rain = 0
KLE1 120206Z 13008KT 30/16 A2998 RMK A01 T03040160  RH  042%=      5-min Rain = 0
KLE1 120207Z 13008KT 30/16 A2998 RMK A01 T03040160  RH  042%=      5-min Rain = 0
KLE1 120208Z 13009KT 30/16 A2998 RMK A01 T03040160  RH  042%=      5-min Rain = 0
KLE1 120209Z 13009KT 30/16 A2998 RMK A01 T03040160  RH  042%=      5-min Rain = 0
KLE1 120210Z 13009KT 30/16 A2998 RMK A01 T03040160  RH  042%=      5-min Rain = 0
KLE1 120211Z 13008KT 30/16 A2998 RMK A01 T03040159  RH  042%=      5-min Rain = 0
KLE1 120212Z 12009KT 30/16 A2998 RMK A01 T03040160  RH  042%=      5-min Rain = 0
KLE1 120213Z 12009KT 30/16 A2998 RMK A01 T03040159  RH  042%=      5-min Rain = 0
KLE1 120214Z 12009KT 30/16 A2998 RMK A01 T03040159  RH  042%=      5-min Rain = 0
KLE1 120215Z 12009KT 30/16 A2998 RMK A01 T03040158  RH  041%=      5-min Rain = 0
KLE1 120216Z 12008KT 30/16 A2998 RMK A01 T03040157  RH  041%=      5-min Rain = 0
KLE1 120217Z 12009KT 30/16 A2998 RMK A01 T03040157  RH  041%=      5-min Rain = 0
KLE1 120218Z 12009KT 31/16 A2998 RMK A01 T03050156  RH  041%=      5-min Rain = 0
KLE1 120219Z 12009KT 31/16 A2998 RMK A01 T03050156  RH  041%=      5-min Rain = 0
KLE1 120220Z 12008KT 31/16 A2998 RMK A01 T03050156  RH  041%=      5-min Rain = 0
KLE1 120221Z 12008KT 31/16 A2998 RMK A01 T03050156  RH  041%=      5-min Rain = 0
KLE1 120222Z 12008KT 31/16 A2998 RMK A01 T03050156  RH  041%=      5-min Rain = 0
KLE1 120223Z 12008KT 31/16 A2998 RMK A01 T03050156  RH  041%=      5-min Rain = 0
KLE1 120224Z 12008KT 31/16 A2998 RMK A01 T03050156  RH  041%=      5-min Rain = 0
KLE1 120225Z 12008KT 31/16 A2998 RMK A01 T03050156  RH  041%=      5-min Rain = 0
KLE1 120226Z 12008KT 31/16 A2998 RMK A01 T03050156  RH  041%=      5-min Rain = 0
KLE1 120227Z 12008KT 31/16 A2998 RMK A01 T03050156  RH  041%=      5-min Rain = 0
KLE1 120228Z 12008KT 30/16 A2998 RMK A01 T03040156  RH  041%=      5-min Rain = 0
KLE1 120229Z 12008KT 30/16 A2998 RMK A01 T03040156  RH  041%=      5-min Rain = 0
KLE1 120230Z 12008KT 30/16 A2998 RMK A01 T03030156  RH  041%=      5-min Rain = 0
KLE1 120231Z 12008KT 30/16 A2998 RMK A01 T03030156  RH  041%=      5-min Rain = 0
KLE1 120232Z 12008KT 30/16 A2999 RMK A01 T03030156  RH  041%=      5-min Rain = 0
KLE1 120233Z 12008KT 30/16 A2999 RMK A01 T03020156  RH  041%=      5-min Rain = 0
KLE1 120234Z 12008KT 30/16 A2999 RMK A01 T03020156  RH  041%=      5-min Rain = 0
KLE1 120235Z 12008KT 30/16 A2999 RMK A01 T03020156  RH  041%=      5-min Rain = 0
KLE1 120236Z 12008KT 30/16 A2999 RMK A01 T03020156  RH  041%=      5-min Rain = 0
KLE1 120237Z 12008KT 30/16 A2999 RMK A01 T03010157  RH  042%=      5-min Rain = 0
KLE1 120238Z 12008KT 30/16 A2999 RMK A01 T03000157  RH  042%=      5-min Rain = 0
KLE1 120239Z 12008KT 30/16 A2999 RMK A01 T02990158  RH  042%=      5-min Rain = 0
KLE1 120240Z 12008KT 30/16 A2999 RMK A01 T02980158  RH  043%=      5-min Rain = 0
KLE1 120241Z 12008KT 30/16 A2999 RMK A01 T02980157  RH  043%=      5-min Rain = 0
KLE1 120242Z 12008KT 30/16 A2999 RMK A01 T02980157  RH  043%=      5-min Rain = 0
KLE1 120243Z 12008KT 30/16 A2999 RMK A01 T02980157  RH  043%=      5-min Rain = 0
KLE1 120244Z 12008KT 30/16 A2999 RMK A01 T02970156  RH  042%=      5-min Rain = 0
KLE1 120245Z 12008KT 30/16 A2999 RMK A01 T02980156  RH  042%=      5-min Rain = 0
KLE1 120246Z 12008KT 30/16 A2999 RMK A01 T02990157  RH  042%=      5-min Rain = 0
KLE1 120247Z 12008KT 30/16 A2999 RMK A01 T02980157  RH  042%=      5-min Rain = 0
KLE1 120248Z 12008KT 30/16 A2999 RMK A01 T02980157  RH  042%=      5-min Rain = 0
KLE1 120249Z 13008KT 30/16 A2999 RMK A01 T02980157  RH  043%=      5-min Rain = 0
KLE1 120250Z 12008KT 30/16 A2999 RMK A01 T02970158  RH  043%=      5-min Rain = 0
KLE1 120251Z 13008KT 30/16 A30 RMK A01 T02970158  RH  043%=      5-min Rain = 0
KLE1 120252Z 13008KT 30/16 A30 RMK A01 T02960158  RH  043%=      5-min Rain = 0
KLE1 120253Z 13008KT 30/16 A30 RMK A01 T02960158  RH  043%=      5-min Rain = 0
KLE1 120254Z 13008KT 30/16 A30 RMK A01 T02960158  RH  043%=      5-min Rain = 0
KLE1 120255Z 13008KT 30/16 A30 RMK A01 T02960158  RH  043%=      5-min Rain = 0
KLE1 120256Z 13008KT 30/16 A30 RMK A01 T02960158  RH  043%=      5-min Rain = 0
KLE1 120257Z 13007KT 30/16 A30 RMK A01 T02960158  RH  043%=      5-min Rain = 0
KLE1 120258Z 13008KT 30/16 A30 RMK A01 T02960158  RH  043%=      5-min Rain = 0
KLE1 120259Z 12008KT 30/16 A30 RMK A01 T02950158  RH  044%=      5-min Rain = 0
KLE1 120300Z 12007KT 30/16 A30 RMK A01 T02950158  RH  044%=      5-min Rain = 0
KLE1 120301Z 12008KT 29/16 A30 RMK A01 T02940158  RH  044%=      5-min Rain = 0
KLE1 120302Z 12008KT 29/16 A30 RMK A01 T02930158  RH  044%=      5-min Rain = 0
KLE1 120303Z 12008KT 29/16 A30 RMK A01 T02930158  RH  044%=      5-min Rain = 0
KLE1 120304Z 12008KT 29/16 A30 RMK A01 T02930158  RH  044%=      5-min Rain = 0
KLE1 120305Z 12008KT 29/16 A30 RMK A01 T02930157  RH  044%=      5-min Rain = 0
KLE1 120306Z 12008KT 29/16 A30 RMK A01 T02930158  RH  044%=      5-min Rain = 0
KLE1 120307Z 11008KT 29/16 A30 RMK A01 T02930158  RH  044%=      5-min Rain = 0
KLE1 120308Z 12008KT 29/16 A30 RMK A01 T02930158  RH  044%=      5-min Rain = 0
KLE1 120309Z 12008KT 29/16 A30 RMK A01 T02930157  RH  044%=      5-min Rain = 0
KLE1 120310Z 12008KT 29/16 A30 RMK A01 T02930157  RH  044%=      5-min Rain = 0
KLE1 120311Z 12008KT 29/16 A30 RMK A01 T02930157  RH  044%=      5-min Rain = 0
KLE1 120312Z 12007KT 29/16 A3001 RMK A01 T02930157  RH  044%=      5-min Rain = 0
KLE1 120313Z 12007KT 29/16 A3001 RMK A01 T02930157  RH  044%=      5-min Rain = 0
KLE1 120314Z 12007KT 29/16 A3001 RMK A01 T02930157  RH  044%=      5-min Rain = 0
KLE1 120315Z 12007KT 29/16 A3001 RMK A01 T02930157  RH  044%=      5-min Rain = 0
KLE1 120316Z 12007KT 29/16 A3001 RMK A01 T02930157  RH  044%=      5-min Rain = 0
KLE1 120317Z 12007KT 29/16 A3001 RMK A01 T02930157  RH  044%=      5-min Rain = 0
KLE1 120318Z 12007KT 29/16 A3001 RMK A01 T02930157  RH  044%=      5-min Rain = 0
KLE1 120319Z 12007KT 29/16 A3001 RMK A01 T02920157  RH  044%=      5-min Rain = 0
KLE1 120320Z 12007KT 29/16 A3001 RMK A01 T02920157  RH  044%=      5-min Rain = 0
KLE1 120321Z 12007KT 29/16 A3001 RMK A01 T02920158  RH  044%=      5-min Rain = 0
KLE1 120322Z 12006KT 29/16 A3001 RMK A01 T02910157  RH  044%=      5-min Rain = 0
KLE1 120323Z 12006KT 29/16 A3001 RMK A01 T02910158  RH  044%=      5-min Rain = 0
KLE1 120324Z 12006KT 29/16 A3001 RMK A01 T02910158  RH  045%=      5-min Rain = 0
KLE1 120325Z 12006KT 29/16 A3001 RMK A01 T02910158  RH  045%=      5-min Rain = 0
KLE1 120326Z 11006KT 29/16 A3001 RMK A01 T02900158  RH  045%=      5-min Rain = 0
KLE1 120327Z 11006KT 29/16 A3001 RMK A01 T02890159  RH  045%=      5-min Rain = 0
KLE1 120328Z 11007KT 29/16 A3001 RMK A01 T02890159  RH  045%=      5-min Rain = 0
KLE1 120329Z 11007KT 29/16 A3001 RMK A01 T02890159  RH  045%=      5-min Rain = 0
KLE1 120330Z 11006KT 29/16 A3001 RMK A01 T02880159  RH  045%=      5-min Rain = 0
KLE1 120331Z 10006KT 29/16 A3001 RMK A01 T02880159  RH  046%=      5-min Rain = 0
KLE1 120332Z 10006KT 29/16 A3002 RMK A01 T02870158  RH  046%=      5-min Rain = 0
KLE1 120333Z 10007KT 29/16 A3002 RMK A01 T02870158  RH  046%=      5-min Rain = 0
KLE1 120334Z 10007KT 29/16 A3002 RMK A01 T02870158  RH  046%=      5-min Rain = 0
KLE1 120335Z 10007KT 29/16 A3002 RMK A01 T02860157  RH  046%=      5-min Rain = 0
KLE1 120336Z 10007KT 29/16 A3002 RMK A01 T02860157  RH  046%=      5-min Rain = 0
KLE1 120337Z 10007KT 29/16 A3002 RMK A01 T02860157  RH  046%=      5-min Rain = 0
KLE1 120338Z 10007KT 29/16 A3002 RMK A01 T02850157  RH  046%=      5-min Rain = 0
KLE1 120339Z 10007KT 29/16 A3002 RMK A01 T02850157  RH  046%=      5-min Rain = 0
KLE1 120340Z 10007KT 29/16 A3002 RMK A01 T02850156  RH  046%=      5-min Rain = 0
KLE1 120341Z 10007KT 29/16 A3002 RMK A01 T02850156  RH  046%=      5-min Rain = 0
KLE1 120342Z 10006KT 28/16 A3002 RMK A01 T02840156  RH  046%=      5-min Rain = 0
KLE1 120343Z 10006KT 28/16 A3002 RMK A01 T02840156  RH  046%=      5-min Rain = 0
KLE1 120344Z 10006KT 28/16 A3002 RMK A01 T02830156  RH  046%=      5-min Rain = 0
KLE1 120345Z 10006KT 28/16 A3002 RMK A01 T02830155  RH  046%=      5-min Rain = 0
KLE1 120346Z 10006KT 28/16 A3002 RMK A01 T02830155  RH  046%=      5-min Rain = 0
KLE1 120347Z 10007KT 28/16 A3002 RMK A01 T02830155  RH  046%=      5-min Rain = 0
KLE1 120348Z 10007KT 28/16 A3002 RMK A01 T02830155  RH  046%=      5-min Rain = 0
KLE1 120349Z 10007KT 28/16 A3002 RMK A01 T02830155  RH  046%=      5-min Rain = 0
KLE1 120350Z 10007KT 28/16 A3002 RMK A01 T02830155  RH  046%=      5-min Rain = 0
KLE1 120351Z 11007KT 28/16 A3002 RMK A01 T02820155  RH  046%=      5-min Rain = 0
KLE1 120352Z 11007KT 28/16 A3002 RMK A01 T02820155  RH  046%=      5-min Rain = 0
KLE1 120353Z 11007KT 28/16 A3002 RMK A01 T02820155  RH  046%=      5-min Rain = 0
KLE1 120354Z 12007KT 28/16 A3002 RMK A01 T02830155  RH  046%=      5-min Rain = 0
KLE1 120355Z 12007KT 28/16 A3002 RMK A01 T02830155  RH  046%=      5-min Rain = 0
KLE1 120356Z 11007KT 28/16 A3002 RMK A01 T02830155  RH  046%=      5-min Rain = 0
KLE1 120357Z 11007KT 28/16 A3002 RMK A01 T02830156  RH  046%=      5-min Rain = 0
KLE1 120358Z 11006KT 28/16 A3002 RMK A01 T02830156  RH  046%=      5-min Rain = 0
KLE1 120359Z 11007KT 28/16 A3002 RMK A01 T02830156  RH  046%=      5-min Rain = 0
KLE1 120400Z 11007KT 28/16 A3002 RMK A01 T02820156  RH  046%=      5-min Rain = 0
KLE1 120401Z 11007KT 28/16 A3002 RMK A01 T02820156  RH  046%=      5-min Rain = 0
KLE1 120402Z 11007KT 28/16 A3002 RMK A01 T02820156  RH  046%=      5-min Rain = 0
KLE1 120403Z 11007KT 28/16 A3002 RMK A01 T02820156  RH  046%=      5-min Rain = 0
KLE1 120404Z 11007KT 28/16 A3002 RMK A01 T02810156  RH  046%=      5-min Rain = 0
KLE1 120405Z 11007KT 28/16 A3002 RMK A01 T02810156  RH  047%=      5-min Rain = 0
KLE1 120406Z 11007KT 28/16 A3002 RMK A01 T02810156  RH  047%=      5-min Rain = 0
KLE1 120407Z 11006KT 28/16 A3002 RMK A01 T02810156  RH  047%=      5-min Rain = 0
KLE1 120408Z 11007KT 28/16 A3002 RMK A01 T02810156  RH  047%=      5-min Rain = 0
KLE1 120409Z 11007KT 28/16 A3002 RMK A01 T02800156  RH  047%=      5-min Rain = 0
KLE1 120410Z 11007KT 28/16 A3002 RMK A01 T02800156  RH  047%=      5-min Rain = 0
KLE1 120411Z 11007KT 28/16 A3002 RMK A01 T02790155  RH  047%=      5-min Rain = 0
KLE1 120412Z 11007KT 28/16 A3002 RMK A01 T02790156  RH  047%=      5-min Rain = 0
KLE1 120413Z 11007KT 28/16 A3002 RMK A01 T02790155  RH  047%=      5-min Rain = 0
KLE1 120414Z 11006KT 28/16 A3002 RMK A01 T02790156  RH  047%=      5-min Rain = 0
KLE1 120415Z 12007KT 28/16 A3002 RMK A01 T02790156  RH  047%=      5-min Rain = 0
KLE1 120416Z 12007KT 28/16 A3002 RMK A01 T02790155  RH  047%=      5-min Rain = 0
KLE1 120417Z 12007KT 28/16 A3002 RMK A01 T02790155  RH  047%=      5-min Rain = 0
KLE1 120418Z 12007KT 28/16 A3002 RMK A01 T02790155  RH  047%=      5-min Rain = 0
KLE1 120419Z 12007KT 28/16 A3002 RMK A01 T02790156  RH  047%=      5-min Rain = 0
KLE1 120420Z 12007KT 28/16 A3002 RMK A01 T02790156  RH  047%=      5-min Rain = 0
KLE1 120421Z 12007KT 28/16 A3002 RMK A01 T02790156  RH  047%=      5-min Rain = 0
KLE1 120422Z 12007KT 28/16 A3002 RMK A01 T02790157  RH  047%=      5-min Rain = 0
KLE1 120423Z 12007KT 28/16 A3002 RMK A01 T02790157  RH  048%=      5-min Rain = 0
KLE1 120424Z 12007KT 28/16 A3002 RMK A01 T02780157  RH  048%=      5-min Rain = 0
KLE1 120425Z 12007KT 28/16 A3002 RMK A01 T02780158  RH  048%=      5-min Rain = 0
KLE1 120426Z 12007KT 28/16 A3002 RMK A01 T02780157  RH  048%=      5-min Rain = 0
KLE1 120427Z 12007KT 28/16 A3002 RMK A01 T02780157  RH  048%=      5-min Rain = 0
KLE1 120428Z 12007KT 28/16 A3002 RMK A01 T02780158  RH  048%=      5-min Rain = 0
KLE1 120429Z 12007KT 28/16 A3002 RMK A01 T02780158  RH  048%=      5-min Rain = 0
KLE1 120430Z 12007KT 28/16 A3002 RMK A01 T02780158  RH  048%=      5-min Rain = 0
KLE1 120431Z 12007KT 28/16 A3002 RMK A01 T02780158  RH  048%=      5-min Rain = 0
KLE1 120432Z 12007KT 28/16 A3002 RMK A01 T02770158  RH  048%=      5-min Rain = 0
KLE1 120433Z 12007KT 28/16 A3002 RMK A01 T02770158  RH  048%=      5-min Rain = 0
KLE1 120434Z 11006KT 28/16 A3002 RMK A01 T02770158  RH  049%=      5-min Rain = 0
KLE1 120435Z 11006KT 28/16 A3002 RMK A01 T02760158  RH  049%=      5-min Rain = 0
KLE1 120436Z 11006KT 28/16 A3002 RMK A01 T02760158  RH  049%=      5-min Rain = 0
KLE1 120437Z 11006KT 28/16 A3002 RMK A01 T02750158  RH  049%=      5-min Rain = 0
KLE1 120438Z 11006KT 28/16 A3002 RMK A01 T02750158  RH  049%=      5-min Rain = 0
KLE1 120439Z 11006KT 28/16 A3002 RMK A01 T02750158  RH  049%=      5-min Rain = 0
KLE1 120440Z 11005KT 28/16 A3002 RMK A01 T02750158  RH  049%=      5-min Rain = 0
KLE1 120441Z 11005KT 27/16 A3002 RMK A01 T02740158  RH  049%=      5-min Rain = 0
KLE1 120442Z 11005KT 27/16 A3002 RMK A01 T02740158  RH  049%=      5-min Rain = 0
KLE1 120443Z 10005KT 27/16 A3002 RMK A01 T02740158  RH  049%=      5-min Rain = 0
KLE1 120444Z 10006KT 27/16 A3002 RMK A01 T02740157  RH  049%=      5-min Rain = 0
KLE1 120445Z 11006KT 27/16 A3002 RMK A01 T02740157  RH  049%=      5-min Rain = 0
KLE1 120446Z 11006KT 27/16 A3002 RMK A01 T02740157  RH  049%=      5-min Rain = 0
KLE1 120447Z 11006KT 27/16 A3002 RMK A01 T02740157  RH  049%=      5-min Rain = 0
KLE1 120448Z 11006KT 27/16 A3002 RMK A01 T02740157  RH  049%=      5-min Rain = 0
KLE1 120449Z 11006KT 27/16 A3002 RMK A01 T02740157  RH  049%=      5-min Rain = 0
KLE1 120450Z 11006KT 28/16 A3002 RMK A01 T02750157  RH  048%=      5-min Rain = 0
KLE1 120451Z 11006KT 28/16 A3002 RMK A01 T02760157  RH  048%=      5-min Rain = 0
KLE1 120452Z 11006KT 28/16 A3002 RMK A01 T02760157  RH  048%=      5-min Rain = 0
KLE1 120453Z 11006KT 28/16 A3002 RMK A01 T02760157  RH  048%=      5-min Rain = 0
KLE1 120454Z 11006KT 28/16 A3002 RMK A01 T02760158  RH  049%=      5-min Rain = 0
KLE1 120455Z 11006KT 28/16 A3002 RMK A01 T02760158  RH  049%=      5-min Rain = 0
KLE1 120456Z 12006KT 28/16 A3002 RMK A01 T02750158  RH  049%=      5-min Rain = 0
KLE1 120457Z 12006KT 28/16 A3002 RMK A01 T02750158  RH  049%=      5-min Rain = 0
KLE1 120458Z 12007KT 28/16 A3002 RMK A01 T02750158  RH  049%=      5-min Rain = 0
KLE1 120459Z 12006KT 28/16 A3002 RMK A01 T02750158  RH  049%=      5-min Rain = 0

Page generated in 0.0411 seconds.